Observation data for JA Ranch on 08/14/2019      Previous  Date  Next       Current Mesonet Observations  Soil Data  Daily Summary Page  Observations in Plain Language
KPD3 140500Z 06005KT 24/17 A3013 RMK A01 T02440174  RH  065%=      5-min Rain = 0
KPD3 140501Z 05006KT 24/17 A3013 RMK A01 T02440174  RH  065%=      5-min Rain = 0
KPD3 140502Z 05005KT 24/18 A3013 RMK A01 T02440175  RH  065%=      5-min Rain = 0
KPD3 140503Z 04006KT 24/18 A3013 RMK A01 T02440175  RH  065%=      5-min Rain = 0
KPD3 140504Z 04006KT 24/18 A3013 RMK A01 T02440175  RH  065%=      5-min Rain = 0
KPD3 140505Z 05007KT 24/18 A3014 RMK A01 T02440175  RH  065%=      5-min Rain = 0
KPD3 140506Z 05007KT 25/18 A3014 RMK A01 T02450175  RH  065%=      5-min Rain = 0
KPD3 140507Z 05007KT 25/18 A3014 RMK A01 T02470176  RH  064%=      5-min Rain = 0
KPD3 140508Z 05007KT 25/18 A3014 RMK A01 T02480176  RH  064%=      5-min Rain = 0
KPD3 140509Z 04006KT 25/18 A3014 RMK A01 T02470175  RH  064%=      5-min Rain = 0
KPD3 140510Z 04006KT 25/18 A3014 RMK A01 T02470176  RH  064%=      5-min Rain = 0
KPD3 140524Z 04006KT 25/18 A3016 RMK A01 T02500178  RH  064%=      5-min Rain = 0
KPD3 140525Z 04006KT 25/18 A3016 RMK A01 T02500178  RH  064%=      5-min Rain = 0
KPD3 140526Z 05006KT 25/18 A3016 RMK A01 T02510179  RH  064%=      5-min Rain = 0
KPD3 140527Z 05007KT 25/18 A3016 RMK A01 T02530180  RH  064%=      5-min Rain = 0
KPD3 140528Z 05006KT 25/18 A3016 RMK A01 T02540180  RH  064%=      5-min Rain = 0
KPD3 140529Z 05008KT 26/18 A3016 RMK A01 T02560181  RH  063%=      5-min Rain = 0
KPD3 140530Z 05008KT 26/18 A3016 RMK A01 T02570181  RH  063%=      5-min Rain = 0
KPD3 140531Z 04007KT 26/18 A3016 RMK A01 T02580181  RH  062%=      5-min Rain = 0
KPD3 140532Z 04007KT 26/18 A3016 RMK A01 T02580181  RH  062%=      5-min Rain = 0
KPD3 140533Z 04007KT 26/18 A3016 RMK A01 T02580181  RH  062%=      5-min Rain = 0
KPD3 140534Z 04008KT 26/18 A3016 RMK A01 T02590181  RH  062%=      5-min Rain = 0
KPD3 140535Z 04007KT 26/18 A3016 RMK A01 T02590181  RH  062%=      5-min Rain = 0
KPD3 140536Z 04007KT 26/18 A3016 RMK A01 T02590181  RH  062%=      5-min Rain = 0
KPD3 140537Z 04008KT 26/18 A3016 RMK A01 T02580181  RH  062%=      5-min Rain = 0
KPD3 140538Z 04008KT 26/18 A3016 RMK A01 T02590181  RH  062%=      5-min Rain = 0
KPD3 140539Z 05008KT 26/18 A3016 RMK A01 T02590181  RH  062%=      5-min Rain = 0
KPD3 140540Z 05009KT 26/18 A3016 RMK A01 T02590182  RH  062%=      5-min Rain = 0
KPD3 140541Z 05009KT 26/18 A3016 RMK A01 T02590182  RH  063%=      5-min Rain = 0
KPD3 140542Z 05009KT 26/18 A3016 RMK A01 T02590183  RH  063%=      5-min Rain = 0
KPD3 140543Z 05007KT 26/18 A3016 RMK A01 T02590183  RH  063%=      5-min Rain = 0
KPD3 140544Z 05007KT 26/18 A3016 RMK A01 T02580183  RH  063%=      5-min Rain = 0
KPD3 140545Z 05007KT 26/18 A3016 RMK A01 T02580183  RH  063%=      5-min Rain = 0
KPD3 140546Z 05008KT 26/18 A3016 RMK A01 T02570183  RH  064%=      5-min Rain = 0
KPD3 140547Z 04007KT 26/18 A3016 RMK A01 T02560183  RH  064%=      5-min Rain = 0
KPD3 140548Z 04007KT 26/18 A3016 RMK A01 T02560183  RH  064%=      5-min Rain = 0
KPD3 140549Z 04007KT 26/18 A3016 RMK A01 T02550183  RH  064%=      5-min Rain = 0
KPD3 140550Z 04008KT 25/18 A3016 RMK A01 T02540183  RH  065%=      5-min Rain = 0
KPD3 140551Z 04008KT 25/18 A3016 RMK A01 T02540183  RH  065%=      5-min Rain = 0
KPD3 140552Z 04009KT 25/18 A3016 RMK A01 T02540184  RH  065%=      5-min Rain = 0
KPD3 140553Z 04008KT 25/18 A3016 RMK A01 T02530184  RH  066%=      5-min Rain = 0
KPD3 140554Z 04008KT 25/18 A3016 RMK A01 T02520184  RH  066%=      5-min Rain = 0
KPD3 140555Z 04007KT 25/19 A3016 RMK A01 T02520185  RH  066%=      5-min Rain = 0
KPD3 140556Z 04007KT 25/19 A3016 RMK A01 T02520185  RH  066%=      5-min Rain = 0
KPD3 140557Z 05008KT 25/19 A3016 RMK A01 T02510185  RH  067%=      5-min Rain = 0
KPD3 140558Z 04007KT 25/19 A3016 RMK A01 T02510185  RH  067%=      5-min Rain = 0
KPD3 140559Z 04006KT 25/19 A3016 RMK A01 T02500186  RH  067%=      5-min Rain = 0
KPD3 140600Z 04007KT 25/19 A3016 RMK A01 T02500186  RH  068%=      5-min Rain = 0
KPD3 140601Z 05008KT 25/19 A3016 RMK A01 T02490186  RH  068%=      5-min Rain = 0
KPD3 140602Z 04006KT 25/19 A3016 RMK A01 T02490187  RH  068%=      5-min Rain = 0
KPD3 140603Z 04006KT 25/19 A3016 RMK A01 T02490187  RH  068%=      5-min Rain = 0
KPD3 140604Z 04007KT 25/19 A3015 RMK A01 T02490187  RH  069%=      5-min Rain = 0
KPD3 140605Z 04007KT 25/19 A3015 RMK A01 T02490187  RH  069%=      5-min Rain = 0
KPD3 140606Z 04007KT 25/19 A3015 RMK A01 T02480188  RH  069%=      5-min Rain = 0
KPD3 140607Z 05007KT 25/19 A3015 RMK A01 T02480188  RH  069%=      5-min Rain = 0
KPD3 140608Z 04007KT 25/19 A3015 RMK A01 T02480188  RH  069%=      5-min Rain = 0
KPD3 140609Z 04007KT 25/19 A3015 RMK A01 T02480188  RH  069%=      5-min Rain = 0
KPD3 140610Z 04007KT 25/19 A3015 RMK A01 T02480189  RH  070%=      5-min Rain = 0
KPD3 140611Z 04006KT 25/19 A3015 RMK A01 T02470189  RH  070%=      5-min Rain = 0
KPD3 140612Z 05007KT 25/19 A3015 RMK A01 T02480189  RH  070%=      5-min Rain = 0
KPD3 140613Z 05008KT 25/19 A3015 RMK A01 T02480189  RH  070%=      5-min Rain = 0
KPD3 140614Z 05007KT 25/19 A3015 RMK A01 T02480189  RH  070%=      5-min Rain = 0
KPD3 140615Z 05007KT 25/19 A3015 RMK A01 T02480189  RH  070%=      5-min Rain = 0
KPD3 140616Z 05007KT 25/19 A3015 RMK A01 T02480188  RH  070%=      5-min Rain = 0
KPD3 140617Z 05007KT 25/19 A3015 RMK A01 T02480189  RH  070%=      5-min Rain = 0
KPD3 140618Z 05007KT 25/19 A3015 RMK A01 T02480189  RH  070%=      5-min Rain = 0
KPD3 140619Z 06007KT 25/19 A3015 RMK A01 T02480189  RH  070%=      5-min Rain = 0
KPD3 140620Z 06007KT 25/19 A3015 RMK A01 T02480189  RH  070%=      5-min Rain = 0
KPD3 140621Z 05006KT 25/19 A3015 RMK A01 T02480189  RH  070%=      5-min Rain = 0
KPD3 140622Z 06006KT 25/19 A3015 RMK A01 T02470188  RH  070%=      5-min Rain = 0
KPD3 140623Z 06006KT 25/19 A3015 RMK A01 T02470188  RH  070%=      5-min Rain = 0
KPD3 140624Z 06006KT 25/19 A3015 RMK A01 T02470188  RH  070%=      5-min Rain = 0
KPD3 140625Z 06006KT 25/19 A3015 RMK A01 T02470188  RH  070%=      5-min Rain = 0
KPD3 140626Z 06006KT 25/19 A3015 RMK A01 T02470188  RH  070%=      5-min Rain = 0
KPD3 140627Z 06006KT 25/19 A3015 RMK A01 T02460188  RH  070%=      5-min Rain = 0
KPD3 140628Z 05007KT 25/19 A3015 RMK A01 T02460188  RH  070%=      5-min Rain = 0
KPD3 140629Z 04009KT 25/19 A3015 RMK A01 T02450188  RH  070%=      5-min Rain = 0
KPD3 140630Z 04009KT 25/19 A3016 RMK A01 T02450188  RH  071%=      5-min Rain = 0
KPD3 140631Z 04009KT 24/19 A3016 RMK A01 T02440188  RH  071%=      5-min Rain = 0
KPD3 140632Z 04012G17KT 24/19 A3016 RMK A01 T02440188  RH  071%=      5-min Rain = 0
KPD3 140633Z 05016KT 24/19 A3016 RMK A01 T02440189  RH  071%=      5-min Rain = 0
KPD3 140634Z 05015G20KT 25/19 A3016 RMK A01 T02460189  RH  071%=      5-min Rain = 0
KPD3 140635Z 05012G17KT 25/19 A3016 RMK A01 T02460190  RH  071%=      5-min Rain = 0
KPD3 140636Z 05018G23KT 25/19 A3016 RMK A01 T02460190  RH  071%=      5-min Rain = 0
KPD3 140637Z 04021G26KT 24/18 A3016 RMK A01 T02440180  RH  067%=      5-min Rain = 0
KPD3 140638Z 05020KT 24/17 A3016 RMK A01 T02420171  RH  064%=      5-min Rain = 0
KPD3 140639Z 05016G21KT 24/17 A3016 RMK A01 T02400166  RH  063%=      5-min Rain = 0
KPD3 140640Z 05016KT 24/16 A3016 RMK A01 T02390164  RH  063%=      5-min Rain = 0
KPD3 140641Z 05018KT 24/16 A3017 RMK A01 T02380162  RH  063%=      5-min Rain = 0
KPD3 140642Z 04016KT 24/16 A3017 RMK A01 T02370162  RH  063%=      5-min Rain = 0
KPD3 140643Z 05015KT 24/16 A3017 RMK A01 T02360161  RH  063%=      5-min Rain = 0
KPD3 140644Z 04013KT 24/16 A3017 RMK A01 T02360161  RH  063%=      5-min Rain = 0
KPD3 140645Z 05014KT 24/16 A3017 RMK A01 T02350160  RH  063%=      5-min Rain = 0
KPD3 140646Z 05014KT 23/16 A3017 RMK A01 T02340160  RH  063%=      5-min Rain = 0
KPD3 140647Z 05016G21KT 23/16 A3017 RMK A01 T02340159  RH  063%=      5-min Rain = 0
KPD3 140648Z 05015KT 23/16 A3017 RMK A01 T02330159  RH  063%=      5-min Rain = 0
KPD3 140649Z 04016KT 23/16 A3017 RMK A01 T02320158  RH  063%=      5-min Rain = 0
KPD3 140650Z 05014KT 23/16 A3017 RMK A01 T02320157  RH  063%=      5-min Rain = 0
KPD3 140651Z 04015KT 23/16 A3017 RMK A01 T02310156  RH  063%=      5-min Rain = 0
KPD3 140652Z 04014KT 23/16 A3017 RMK A01 T02300155  RH  063%=      5-min Rain = 0
KPD3 140653Z 04013KT 23/16 A3017 RMK A01 T02290155  RH  063%=      5-min Rain = 0
KPD3 140654Z 04012KT 23/15 A3017 RMK A01 T02290154  RH  063%=      5-min Rain = 0
KPD3 140655Z 04012KT 23/15 A3017 RMK A01 T02280153  RH  063%=      5-min Rain = 0
KPD3 140656Z 05013KT 23/15 A3017 RMK A01 T02270153  RH  063%=      5-min Rain = 0
KPD3 140657Z 05013KT 23/15 A3017 RMK A01 T02270153  RH  063%=      5-min Rain = 0
KPD3 140658Z 04013KT 23/15 A3017 RMK A01 T02260152  RH  063%=      5-min Rain = 0
KPD3 140659Z 05013KT 23/15 A3017 RMK A01 T02260152  RH  063%=      5-min Rain = 0
KPD3 140700Z 04011KT 23/15 A3017 RMK A01 T02260152  RH  063%=      5-min Rain = 0
KPD3 140701Z 04013KT 23/15 A3017 RMK A01 T02260151  RH  062%=      5-min Rain = 0
KPD3 140702Z 04013KT 23/15 A3017 RMK A01 T02260150  RH  062%=      5-min Rain = 0
KPD3 140703Z 04014KT 23/15 A3017 RMK A01 T02260150  RH  062%=      5-min Rain = 0
KPD3 140704Z 04015KT 23/15 A3017 RMK A01 T02260149  RH  062%=      5-min Rain = 0
KPD3 140705Z 04014KT 23/15 A3017 RMK A01 T02260149  RH  062%=      5-min Rain = 0
KPD3 140706Z 04011KT 23/15 A3017 RMK A01 T02260150  RH  062%=      5-min Rain = 0
KPD3 140707Z 04009KT 23/15 A3017 RMK A01 T02260151  RH  063%=      5-min Rain = 0
KPD3 140708Z 04012KT 23/15 A3017 RMK A01 T02250151  RH  063%=      5-min Rain = 0
KPD3 140709Z 04014KT 22/15 A3017 RMK A01 T02240150  RH  063%=      5-min Rain = 0
KPD3 140710Z 05014KT 22/15 A3017 RMK A01 T02240148  RH  062%=      5-min Rain = 0
KPD3 140711Z 04013KT 22/15 A3017 RMK A01 T02240147  RH  062%=      5-min Rain = 0
KPD3 140712Z 04012KT 22/15 A3017 RMK A01 T02230147  RH  062%=      5-min Rain = 0
KPD3 140713Z 04013KT 22/15 A3017 RMK A01 T02220147  RH  062%=      5-min Rain = 0
KPD3 140714Z 04013KT 22/15 A3016 RMK A01 T02220146  RH  062%=      5-min Rain = 0
KPD3 140715Z 04011KT 22/15 A3016 RMK A01 T02220146  RH  062%=      5-min Rain = 0
KPD3 140716Z 05011KT 22/15 A3016 RMK A01 T02220146  RH  062%=      5-min Rain = 0
KPD3 140717Z 05010KT 22/15 A3016 RMK A01 T02210145  RH  062%=      5-min Rain = 0
KPD3 140718Z 05012KT 22/15 A3016 RMK A01 T02200145  RH  062%=      5-min Rain = 0
KPD3 140719Z 05014KT 22/15 A3016 RMK A01 T02200145  RH  062%=      5-min Rain = 0
KPD3 140720Z 04010G15KT 22/15 A3016 RMK A01 T02200145  RH  062%=      5-min Rain = 0
KPD3 140721Z 04012KT 22/15 A3016 RMK A01 T02200145  RH  062%=      5-min Rain = 0
KPD3 140722Z 05012KT 22/15 A3016 RMK A01 T02200145  RH  062%=      5-min Rain = 0
KPD3 140723Z 05011KT 22/15 A3016 RMK A01 T02200145  RH  062%=      5-min Rain = 0
KPD3 140724Z 05009KT 22/15 A3016 RMK A01 T02190145  RH  063%=      5-min Rain = 0
KPD3 140725Z 05008KT 22/15 A3016 RMK A01 T02190145  RH  063%=      5-min Rain = 0
KPD3 140726Z 05008KT 22/15 A3016 RMK A01 T02180145  RH  063%=      5-min Rain = 0
KPD3 140727Z 06007KT 22/15 A3016 RMK A01 T02180145  RH  063%=      5-min Rain = 0
KPD3 140728Z 04008KT 22/15 A3016 RMK A01 T02170145  RH  063%=      5-min Rain = 0
KPD3 140729Z 04008KT 22/15 A3016 RMK A01 T02170145  RH  063%=      5-min Rain = 0
KPD3 140730Z 04008KT 22/15 A3016 RMK A01 T02160145  RH  064%=      5-min Rain = 0
KPD3 140731Z 03009KT 22/15 A3016 RMK A01 T02160145  RH  064%=      5-min Rain = 0
KPD3 140732Z 04008KT 22/15 A3016 RMK A01 T02160145  RH  064%=      5-min Rain = 0
KPD3 140733Z 03006KT 22/15 A3017 RMK A01 T02160145  RH  064%=      5-min Rain = 0
KPD3 140734Z 03006KT 22/15 A3017 RMK A01 T02160145  RH  064%=      5-min Rain = 0
KPD3 140735Z 02005KT 22/15 A3017 RMK A01 T02150146  RH  064%=      5-min Rain = 0
KPD3 140736Z 01004KT 22/15 A3017 RMK A01 T02150146  RH  065%=      5-min Rain = 0
KPD3 140737Z 02004KT 21/15 A3017 RMK A01 T02140147  RH  066%=      5-min Rain = 0
KPD3 140738Z 02008KT 21/15 A3017 RMK A01 T02140147  RH  066%=      5-min Rain = 0
KPD3 140739Z 02007KT 21/15 A3017 RMK A01 T02140147  RH  065%=      5-min Rain = 0
KPD3 140740Z 02008KT 21/15 A3017 RMK A01 T02140146  RH  065%=      5-min Rain = 0
KPD3 140741Z 02009KT 21/14 A3017 RMK A01 T02140144  RH  064%=      5-min Rain = 0
KPD3 140742Z 03007KT 21/14 A3017 RMK A01 T02140144  RH  064%=      5-min Rain = 0
KPD3 140743Z 02009KT 21/14 A3016 RMK A01 T02140143  RH  064%=      5-min Rain = 0
KPD3 140744Z 02008KT 21/14 A3016 RMK A01 T02140142  RH  063%=      5-min Rain = 0
KPD3 140745Z 03007KT 21/14 A3016 RMK A01 T02140142  RH  063%=      5-min Rain = 0
KPD3 140746Z 02008KT 21/14 A3016 RMK A01 T02140141  RH  063%=      5-min Rain = 0
KPD3 140747Z 01008KT 21/14 A3017 RMK A01 T02130141  RH  063%=      5-min Rain = 0
KPD3 140748Z 01009KT 21/14 A3017 RMK A01 T02130141  RH  063%=      5-min Rain = 0
KPD3 140749Z 01009KT 21/14 A3017 RMK A01 T02130141  RH  063%=      5-min Rain = 0
KPD3 140750Z 01007KT 21/14 A3017 RMK A01 T02130140  RH  063%=      5-min Rain = 0
KPD3 140751Z 01009KT 21/14 A3017 RMK A01 T02120140  RH  063%=      5-min Rain = 0
KPD3 140752Z 00008KT 21/14 A3017 RMK A01 T02120140  RH  063%=      5-min Rain = 0
KPD3 140753Z 01008KT 21/14 A3017 RMK A01 T02120140  RH  063%=      5-min Rain = 0
KPD3 140754Z 01008KT 21/14 A3017 RMK A01 T02110139  RH  063%=      5-min Rain = 0
KPD3 140755Z 01008KT 21/14 A3017 RMK A01 T02110139  RH  063%=      5-min Rain = 0
KPD3 140756Z 01008KT 21/14 A3017 RMK A01 T02110139  RH  064%=      5-min Rain = 0
KPD3 140757Z 01008KT 21/14 A3017 RMK A01 T02110139  RH  064%=      5-min Rain = 0
KPD3 140758Z 00008KT 21/14 A3017 RMK A01 T02100140  RH  064%=      5-min Rain = 0
KPD3 140759Z 01008KT 21/14 A3017 RMK A01 T02110140  RH  064%=      5-min Rain = 0
KPD3 140800Z 01007KT 21/14 A3017 RMK A01 T02100140  RH  064%=      5-min Rain = 0
KPD3 140801Z 01007KT 21/14 A3017 RMK A01 T02100140  RH  064%=      5-min Rain = 0
KPD3 140802Z 01008KT 21/14 A3017 RMK A01 T02100140  RH  064%=      5-min Rain = 0
KPD3 140803Z 01008KT 21/14 A3017 RMK A01 T02100139  RH  064%=      5-min Rain = 0
KPD3 140804Z 36009KT 21/14 A3017 RMK A01 T02100139  RH  064%=      5-min Rain = 0
KPD3 140805Z 00008KT 21/14 A3017 RMK A01 T02100139  RH  064%=      5-min Rain = 0
KPD3 140806Z 36007KT 21/14 A3017 RMK A01 T02100140  RH  064%=      5-min Rain = 0
KPD3 140807Z 00007KT 21/14 A3017 RMK A01 T02090139  RH  064%=      5-min Rain = 0
KPD3 140808Z 00007KT 21/14 A3017 RMK A01 T02090139  RH  064%=      5-min Rain = 0
KPD3 140809Z 01009KT 21/14 A3017 RMK A01 T02090139  RH  064%=      5-min Rain = 0
KPD3 140810Z 01008KT 21/14 A3017 RMK A01 T02090138  RH  064%=      5-min Rain = 0
KPD3 140811Z 01007KT 21/14 A3017 RMK A01 T02090138  RH  064%=      5-min Rain = 0
KPD3 140812Z 01006KT 21/14 A3017 RMK A01 T02090138  RH  064%=      5-min Rain = 0
KPD3 140813Z 01007KT 21/14 A3017 RMK A01 T02090139  RH  064%=      5-min Rain = 0
KPD3 140814Z 01007KT 21/14 A3017 RMK A01 T02090138  RH  064%=      5-min Rain = 0
KPD3 140815Z 01007KT 21/14 A3017 RMK A01 T02090138  RH  064%=      5-min Rain = 0
KPD3 140816Z 01007KT 21/14 A3017 RMK A01 T02080138  RH  064%=      5-min Rain = 0
KPD3 140817Z 00007KT 21/14 A3017 RMK A01 T02080137  RH  064%=      5-min Rain = 0
KPD3 140818Z 00007KT 21/14 A3017 RMK A01 T02080138  RH  064%=      5-min Rain = 0
KPD3 140819Z 01005KT 21/14 A3017 RMK A01 T02080138  RH  064%=      5-min Rain = 0
KPD3 140820Z 01006KT 21/14 A3017 RMK A01 T02080138  RH  064%=      5-min Rain = 0
KPD3 140821Z 01005KT 21/14 A3016 RMK A01 T02070138  RH  064%=      5-min Rain = 0
KPD3 140822Z 01007KT 21/14 A3016 RMK A01 T02060137  RH  065%=      5-min Rain = 0
KPD3 140823Z 01006KT 21/14 A3016 RMK A01 T02060137  RH  064%=      5-min Rain = 0
KPD3 140824Z 01006KT 21/14 A3016 RMK A01 T02070137  RH  064%=      5-min Rain = 0
KPD3 140825Z 36005KT 21/14 A3016 RMK A01 T02070138  RH  064%=      5-min Rain = 0
KPD3 140826Z 00006KT 21/14 A3016 RMK A01 T02060137  RH  065%=      5-min Rain = 0
KPD3 140827Z 01005KT 21/14 A3016 RMK A01 T02060137  RH  065%=      5-min Rain = 0
KPD3 140828Z 01006KT 21/14 A3016 RMK A01 T02060137  RH  065%=      5-min Rain = 0
KPD3 140829Z 00007KT 21/14 A3016 RMK A01 T02050137  RH  065%=      5-min Rain = 0
KPD3 140830Z 00007KT 21/14 A3016 RMK A01 T02050137  RH  065%=      5-min Rain = 0
KPD3 140831Z 01006KT 21/14 A3016 RMK A01 T02050137  RH  065%=      5-min Rain = 0
KPD3 140832Z 00007KT 21/14 A3016 RMK A01 T02050137  RH  065%=      5-min Rain = 0
KPD3 140833Z 01009KT 21/14 A3016 RMK A01 T02050137  RH  065%=      5-min Rain = 0
KPD3 140834Z 01009KT 21/14 A3016 RMK A01 T02050137  RH  065%=      5-min Rain = 0
KPD3 140835Z 01007KT 21/14 A3016 RMK A01 T02060137  RH  065%=      5-min Rain = 0
KPD3 140836Z 01008KT 21/14 A3016 RMK A01 T02060137  RH  064%=      5-min Rain = 0
KPD3 140837Z 00008KT 21/14 A3016 RMK A01 T02060137  RH  064%=      5-min Rain = 0
KPD3 140838Z 00009KT 21/14 A3016 RMK A01 T02060137  RH  064%=      5-min Rain = 0
KPD3 140839Z 01008KT 21/14 A3016 RMK A01 T02060136  RH  064%=      5-min Rain = 0
KPD3 140840Z 01007KT 21/14 A3016 RMK A01 T02070137  RH  064%=      5-min Rain = 0
KPD3 140841Z 01007KT 21/14 A3016 RMK A01 T02070137  RH  064%=      5-min Rain = 0
KPD3 140842Z 01007KT 21/14 A3016 RMK A01 T02060137  RH  064%=      5-min Rain = 0
KPD3 140843Z 01006KT 21/14 A3016 RMK A01 T02060137  RH  064%=      5-min Rain = 0
KPD3 140844Z 02008KT 21/14 A3016 RMK A01 T02060137  RH  064%=      5-min Rain = 0
KPD3 140845Z 01007KT 21/14 A3016 RMK A01 T02070137  RH  064%=      5-min Rain = 0
KPD3 140846Z 01007KT 21/14 A3016 RMK A01 T02070137  RH  064%=      5-min Rain = 0
KPD3 140847Z 01008KT 21/14 A3016 RMK A01 T02080137  RH  064%=      5-min Rain = 0
KPD3 140848Z 01008KT 21/14 A3016 RMK A01 T02080137  RH  064%=      5-min Rain = 0
KPD3 140849Z 01007KT 21/14 A3016 RMK A01 T02090137  RH  063%=      5-min Rain = 0
KPD3 140850Z 01007KT 21/14 A3016 RMK A01 T02090137  RH  063%=      5-min Rain = 0
KPD3 140851Z 01008KT 21/14 A3016 RMK A01 T02100137  RH  063%=      5-min Rain = 0
KPD3 140852Z 01008KT 21/14 A3016 RMK A01 T02100137  RH  063%=      5-min Rain = 0
KPD3 140853Z 01007KT 21/14 A3016 RMK A01 T02110137  RH  063%=      5-min Rain = 0
KPD3 140854Z 01007KT 21/14 A3016 RMK A01 T02110138  RH  063%=      5-min Rain = 0
KPD3 140855Z 01007KT 21/14 A3016 RMK A01 T02110137  RH  063%=      5-min Rain = 0
KPD3 140856Z 01008KT 21/14 A3016 RMK A01 T02110138  RH  063%=      5-min Rain = 0
KPD3 140857Z 01009KT 21/14 A3016 RMK A01 T02120138  RH  063%=      5-min Rain = 0
KPD3 140858Z 01009KT 21/14 A3016 RMK A01 T02120138  RH  062%=      5-min Rain = 0
KPD3 140859Z 01009KT 21/14 A3016 RMK A01 T02120138  RH  062%=      5-min Rain = 0
KPD3 140900Z 01010KT 21/14 A3016 RMK A01 T02130137  RH  062%=      5-min Rain = 0
KPD3 140901Z 01009KT 21/14 A3016 RMK A01 T02130137  RH  062%=      5-min Rain = 0
KPD3 140902Z 02008KT 21/14 A3016 RMK A01 T02130137  RH  062%=      5-min Rain = 0
KPD3 140903Z 02008KT 21/14 A3016 RMK A01 T02140138  RH  062%=      5-min Rain = 0
KPD3 140904Z 02011KT 21/14 A3016 RMK A01 T02140138  RH  062%=      5-min Rain = 0
KPD3 140905Z 02008KT 21/14 A3016 RMK A01 T02140138  RH  062%=      5-min Rain = 0
KPD3 140906Z 02009KT 21/14 A3016 RMK A01 T02130138  RH  062%=      5-min Rain = 0
KPD3 140907Z 02009KT 21/14 A3016 RMK A01 T02130138  RH  062%=      5-min Rain = 0
KPD3 140908Z 01009KT 21/14 A3016 RMK A01 T02130138  RH  062%=      5-min Rain = 0
KPD3 140909Z 01010KT 21/14 A3016 RMK A01 T02130138  RH  062%=      5-min Rain = 0
KPD3 140910Z 01010KT 21/14 A3016 RMK A01 T02120138  RH  062%=      5-min Rain = 0
KPD3 140911Z 01008KT 21/14 A3016 RMK A01 T02120138  RH  063%=      5-min Rain = 0
KPD3 140912Z 01009KT 21/14 A3016 RMK A01 T02120138  RH  063%=      5-min Rain = 0
KPD3 140913Z 02009KT 21/14 A3017 RMK A01 T02120139  RH  063%=      5-min Rain = 0
KPD3 140914Z 02009KT 21/14 A3017 RMK A01 T02110138  RH  063%=      5-min Rain = 0
KPD3 140915Z 02010KT 21/14 A3017 RMK A01 T02110138  RH  063%=      5-min Rain = 0
KPD3 140916Z 02009KT 21/14 A3017 RMK A01 T02110138  RH  063%=      5-min Rain = 0
KPD3 140917Z 02009KT 21/14 A3017 RMK A01 T02110138  RH  063%=      5-min Rain = 0
KPD3 140918Z 02009KT 21/14 A3017 RMK A01 T02110138  RH  063%=      5-min Rain = 0
KPD3 140919Z 01009KT 21/14 A3017 RMK A01 T02110139  RH  063%=      5-min Rain = 0
KPD3 140920Z 02010KT 21/14 A3017 RMK A01 T02110139  RH  063%=      5-min Rain = 0
KPD3 140921Z 02009KT 21/14 A3017 RMK A01 T02110139  RH  063%=      5-min Rain = 0
KPD3 140922Z 01009KT 21/14 A3017 RMK A01 T02110139  RH  063%=      5-min Rain = 0
KPD3 140923Z 01010KT 21/14 A3017 RMK A01 T02110139  RH  064%=      5-min Rain = 0
KPD3 140924Z 01010KT 21/14 A3017 RMK A01 T02110140  RH  064%=      5-min Rain = 0
KPD3 140925Z 02009KT 21/14 A3017 RMK A01 T02110140  RH  064%=      5-min Rain = 0
KPD3 140926Z 01008KT 21/14 A3017 RMK A01 T02110140  RH  064%=      5-min Rain = 0
KPD3 140927Z 01009KT 21/14 A3017 RMK A01 T02110140  RH  064%=      5-min Rain = 0
KPD3 140928Z 01010KT 21/14 A3017 RMK A01 T02110140  RH  064%=      5-min Rain = 0
KPD3 140929Z 02010KT 21/14 A3017 RMK A01 T02110140  RH  064%=      5-min Rain = 0
KPD3 140930Z 01008KT 21/14 A3017 RMK A01 T02110141  RH  064%=      5-min Rain = 0
KPD3 140931Z 01008KT 21/14 A3017 RMK A01 T02110141  RH  064%=      5-min Rain = 0
KPD3 140932Z 02011KT 21/14 A3017 RMK A01 T02110141  RH  064%=      5-min Rain = 0
KPD3 140933Z 01009KT 21/14 A3017 RMK A01 T02110141  RH  065%=      5-min Rain = 0
KPD3 140934Z 01011KT 21/14 A3017 RMK A01 T02110142  RH  065%=      5-min Rain = 0
KPD3 140935Z 01010KT 21/14 A3018 RMK A01 T02110142  RH  065%=      5-min Rain = 0
KPD3 140936Z 01010KT 21/14 A3018 RMK A01 T02110142  RH  065%=      5-min Rain = 0
KPD3 140937Z 01009KT 21/14 A3018 RMK A01 T02110143  RH  065%=      5-min Rain = 0
KPD3 140938Z 02010KT 21/14 A3018 RMK A01 T02110143  RH  065%=      5-min Rain = 0
KPD3 140939Z 02008KT 21/14 A3018 RMK A01 T02110143  RH  065%=      5-min Rain = 0
KPD3 140940Z 01007KT 21/14 A3018 RMK A01 T02110143  RH  065%=      5-min Rain = 0
KPD3 140941Z 02010KT 21/14 A3018 RMK A01 T02110143  RH  065%=      5-min Rain = 0
KPD3 140942Z 02009KT 21/14 A3018 RMK A01 T02110143  RH  065%=      5-min Rain = 0
KPD3 140943Z 02008KT 21/14 A3018 RMK A01 T02110143  RH  065%=      5-min Rain = 0
KPD3 140944Z 02006KT 21/14 A3018 RMK A01 T02110143  RH  065%=      5-min Rain = 0
KPD3 140945Z 01007KT 21/14 A3019 RMK A01 T02110143  RH  065%=      5-min Rain = 0
KPD3 140946Z 02007KT 21/14 A3019 RMK A01 T02110144  RH  065%=      5-min Rain = 0
KPD3 140947Z 00008KT 21/14 A3019 RMK A01 T02110144  RH  065%=      5-min Rain = 0
KPD3 140948Z 36008KT 21/14 A3019 RMK A01 T02110144  RH  065%=      5-min Rain = 0
KPD3 140949Z 00008KT 21/14 A3019 RMK A01 T02110144  RH  065%=      5-min Rain = 0
KPD3 140950Z 36008KT 21/14 A3019 RMK A01 T02110144  RH  065%=      5-min Rain = 0
KPD3 140951Z 00009KT 21/14 A3019 RMK A01 T02110144  RH  065%=      5-min Rain = 0
KPD3 140952Z 36007KT 21/14 A3019 RMK A01 T02110144  RH  065%=      5-min Rain = 0
KPD3 140953Z 01007KT 21/14 A3019 RMK A01 T02110144  RH  066%=      5-min Rain = 0
KPD3 140954Z 02008KT 21/15 A3019 RMK A01 T02110145  RH  066%=      5-min Rain = 0
KPD3 140955Z 01008KT 21/15 A3019 RMK A01 T02110145  RH  066%=      5-min Rain = 0
KPD3 140956Z 01009KT 21/15 A3019 RMK A01 T02110145  RH  066%=      5-min Rain = 0
KPD3 140957Z 01007KT 21/15 A3019 RMK A01 T02110145  RH  066%=      5-min Rain = 0
KPD3 140958Z 01009KT 21/15 A3019 RMK A01 T02120146  RH  066%=      5-min Rain = 0
KPD3 140959Z 01009KT 21/15 A3019 RMK A01 T02120146  RH  066%=      5-min Rain = 0
KPD3 141000Z 02008KT 21/15 A3019 RMK A01 T02120146  RH  066%=      5-min Rain = 0
KPD3 141001Z 01009KT 21/15 A3019 RMK A01 T02120146  RH  066%=      5-min Rain = 0
KPD3 141002Z 02008KT 21/15 A3019 RMK A01 T02120146  RH  066%=      5-min Rain = 0
KPD3 141003Z 01007KT 21/15 A3019 RMK A01 T02120146  RH  066%=      5-min Rain = 0
KPD3 141004Z 01008KT 21/15 A3018 RMK A01 T02120147  RH  066%=      5-min Rain = 0
KPD3 141005Z 02008KT 21/15 A3018 RMK A01 T02120147  RH  066%=      5-min Rain = 0
KPD3 141006Z 01006KT 21/15 A3018 RMK A01 T02120147  RH  066%=      5-min Rain = 0
KPD3 141007Z 00006KT 21/15 A3018 RMK A01 T02120147  RH  066%=      5-min Rain = 0
KPD3 141008Z 00005KT 21/15 A3018 RMK A01 T02120147  RH  066%=      5-min Rain = 0
KPD3 141009Z 36006KT 21/15 A3018 RMK A01 T02120147  RH  066%=      5-min Rain = 0
KPD3 141010Z 35006KT 21/15 A3018 RMK A01 T02120147  RH  066%=      5-min Rain = 0
KPD3 141011Z 00006KT 21/15 A3019 RMK A01 T02120147  RH  067%=      5-min Rain = 0
KPD3 141012Z 02008KT 21/15 A3019 RMK A01 T02120147  RH  067%=      5-min Rain = 0
KPD3 141013Z 01006KT 21/15 A3019 RMK A01 T02120148  RH  067%=      5-min Rain = 0
KPD3 141014Z 01006KT 21/15 A3019 RMK A01 T02120148  RH  067%=      5-min Rain = 0
KPD3 141015Z 36007KT 21/15 A3019 RMK A01 T02110147  RH  067%=      5-min Rain = 0
KPD3 141016Z 35006KT 21/15 A3019 RMK A01 T02110147  RH  067%=      5-min Rain = 0
KPD3 141017Z 36006KT 21/15 A3019 RMK A01 T02110147  RH  067%=      5-min Rain = 0
KPD3 141018Z 35006KT 21/15 A3019 RMK A01 T02110147  RH  067%=      5-min Rain = 0
KPD3 141019Z 35007KT 21/15 A3019 RMK A01 T02110147  RH  067%=      5-min Rain = 0
KPD3 141020Z 00006KT 21/15 A3019 RMK A01 T02110148  RH  067%=      5-min Rain = 0
KPD3 141021Z 36007KT 21/15 A3019 RMK A01 T02110148  RH  067%=      5-min Rain = 0
KPD3 141022Z 36006KT 21/15 A3019 RMK A01 T02110147  RH  067%=      5-min Rain = 0
KPD3 141023Z 36007KT 21/15 A3019 RMK A01 T02110147  RH  067%=      5-min Rain = 0
KPD3 141024Z 00008KT 21/15 A3019 RMK A01 T02110148  RH  067%=      5-min Rain = 0
KPD3 141025Z 36007KT 21/15 A3019 RMK A01 T02110148  RH  067%=      5-min Rain = 0
KPD3 141026Z 00008KT 21/15 A3019 RMK A01 T02120148  RH  067%=      5-min Rain = 0
KPD3 141027Z 01009KT 21/15 A3019 RMK A01 T02120148  RH  067%=      5-min Rain = 0
KPD3 141028Z 01008KT 21/15 A302 RMK A01 T02120148  RH  067%=      5-min Rain = 0
KPD3 141029Z 00007KT 21/15 A302 RMK A01 T02120148  RH  067%=      5-min Rain = 0
KPD3 141030Z 00007KT 21/15 A302 RMK A01 T02120148  RH  067%=      5-min Rain = 0
KPD3 141031Z 00009KT 21/15 A302 RMK A01 T02120149  RH  067%=      5-min Rain = 0
KPD3 141032Z 36010KT 21/15 A302 RMK A01 T02120149  RH  067%=      5-min Rain = 0
KPD3 141033Z 01010KT 21/15 A302 RMK A01 T02120150  RH  067%=      5-min Rain = 0
KPD3 141034Z 00009KT 21/15 A302 RMK A01 T02120149  RH  067%=      5-min Rain = 0
KPD3 141035Z 01010KT 21/15 A302 RMK A01 T02120150  RH  067%=      5-min Rain = 0
KPD3 141036Z 01009KT 21/15 A302 RMK A01 T02120150  RH  068%=      5-min Rain = 0
KPD3 141037Z 02008KT 21/15 A302 RMK A01 T02120150  RH  068%=      5-min Rain = 0
KPD3 141038Z 02007KT 21/15 A302 RMK A01 T02120150  RH  068%=      5-min Rain = 0
KPD3 141039Z 01009KT 21/15 A302 RMK A01 T02110150  RH  068%=      5-min Rain = 0
KPD3 141040Z 01009KT 21/15 A302 RMK A01 T02110150  RH  068%=      5-min Rain = 0
KPD3 141041Z 02010KT 21/15 A302 RMK A01 T02110150  RH  068%=      5-min Rain = 0
KPD3 141042Z 02010KT 21/15 A302 RMK A01 T02110150  RH  068%=      5-min Rain = 0
KPD3 141043Z 02010KT 21/15 A3021 RMK A01 T02110150  RH  068%=      5-min Rain = 0
KPD3 141044Z 02009KT 21/15 A3021 RMK A01 T02110150  RH  068%=      5-min Rain = 0
KPD3 141045Z 01008KT 21/15 A3021 RMK A01 T02110150  RH  068%=      5-min Rain = 0
KPD3 141046Z 01009KT 21/15 A3021 RMK A01 T02100150  RH  068%=      5-min Rain = 0
KPD3 141047Z 01008KT 21/15 A3021 RMK A01 T02110151  RH  069%=      5-min Rain = 0
KPD3 141048Z 01010KT 21/15 A3021 RMK A01 T02100151  RH  069%=      5-min Rain = 0
KPD3 141049Z 01009KT 21/15 A3021 RMK A01 T02110151  RH  069%=      5-min Rain = 0
KPD3 141050Z 01008KT 21/15 A3021 RMK A01 T02100150  RH  068%=      5-min Rain = 0
KPD3 141051Z 02010KT 21/15 A3021 RMK A01 T02100150  RH  068%=      5-min Rain = 0
KPD3 141052Z 01009KT 21/15 A302 RMK A01 T02110151  RH  069%=      5-min Rain = 0
KPD3 141053Z 02009KT 21/15 A302 RMK A01 T02100151  RH  069%=      5-min Rain = 0
KPD3 141054Z 01007KT 21/15 A302 RMK A01 T02110150  RH  068%=      5-min Rain = 0
KPD3 141055Z 00007KT 21/15 A302 RMK A01 T02110150  RH  068%=      5-min Rain = 0
KPD3 141056Z 01006KT 21/15 A302 RMK A01 T02100150  RH  068%=      5-min Rain = 0
KPD3 141057Z 01006KT 21/15 A302 RMK A01 T02100150  RH  068%=      5-min Rain = 0
KPD3 141058Z 01006KT 21/15 A302 RMK A01 T02100150  RH  069%=      5-min Rain = 0
KPD3 141059Z 36006KT 21/15 A302 RMK A01 T02100150  RH  069%=      5-min Rain = 0
KPD3 141100Z 00007KT 21/15 A302 RMK A01 T02090150  RH  069%=      5-min Rain = 0
KPD3 141101Z 01005KT 21/15 A302 RMK A01 T02090150  RH  069%=      5-min Rain = 0
KPD3 141102Z 35005KT 21/15 A302 RMK A01 T02080150  RH  069%=      5-min Rain = 0
KPD3 141103Z 35007KT 21/15 A302 RMK A01 T02080150  RH  069%=      5-min Rain = 0
KPD3 141104Z 35005KT 21/15 A302 RMK A01 T02080150  RH  069%=      5-min Rain = 0
KPD3 141105Z 36006KT 21/15 A302 RMK A01 T02080150  RH  069%=      5-min Rain = 0
KPD3 141106Z 36006KT 21/15 A302 RMK A01 T02080150  RH  069%=      5-min Rain = 0
KPD3 141107Z 35006KT 21/15 A302 RMK A01 T02080150  RH  070%=      5-min Rain = 0
KPD3 141108Z 01005KT 21/15 A302 RMK A01 T02080150  RH  070%=      5-min Rain = 0
KPD3 141109Z 01004KT 21/15 A302 RMK A01 T02080151  RH  070%=      5-min Rain = 0
KPD3 141110Z 01004KT 21/15 A302 RMK A01 T02080150  RH  070%=      5-min Rain = 0
KPD3 141111Z 02004KT 21/15 A302 RMK A01 T02080151  RH  070%=      5-min Rain = 0
KPD3 141112Z 01003KT 21/15 A302 RMK A01 T02080151  RH  070%=      5-min Rain = 0
KPD3 141113Z 00004KT 21/15 A302 RMK A01 T02070151  RH  070%=      5-min Rain = 0
KPD3 141114Z 00005KT 21/15 A302 RMK A01 T02070151  RH  070%=      5-min Rain = 0
KPD3 141115Z 36005KT 21/15 A3021 RMK A01 T02070151  RH  070%=      5-min Rain = 0
KPD3 141116Z 00007KT 21/15 A3021 RMK A01 T02070151  RH  070%=      5-min Rain = 0
KPD3 141117Z 00006KT 21/15 A3021 RMK A01 T02070152  RH  071%=      5-min Rain = 0
KPD3 141118Z 36007KT 21/15 A3021 RMK A01 T02070152  RH  070%=      5-min Rain = 0
KPD3 141119Z 00005KT 21/15 A3021 RMK A01 T02080151  RH  070%=      5-min Rain = 0
KPD3 141120Z 00006KT 21/15 A3021 RMK A01 T02080151  RH  070%=      5-min Rain = 0
KPD3 141121Z 00009KT 21/15 A3021 RMK A01 T02080149  RH  069%=      5-min Rain = 0
KPD3 141122Z 35010KT 21/15 A3021 RMK A01 T02080149  RH  069%=      5-min Rain = 0
KPD3 141123Z 35008KT 21/15 A3021 RMK A01 T02070147  RH  068%=      5-min Rain = 0
KPD3 141124Z 35009KT 21/15 A302 RMK A01 T02060146  RH  069%=      5-min Rain = 0
KPD3 141125Z 35006KT 21/15 A302 RMK A01 T02050146  RH  069%=      5-min Rain = 0
KPD3 141126Z 34005KT 21/15 A302 RMK A01 T02050146  RH  069%=      5-min Rain = 0
KPD3 141127Z 34007KT 20/15 A302 RMK A01 T02040145  RH  069%=      5-min Rain = 0
KPD3 141128Z 34007KT 20/15 A302 RMK A01 T02040146  RH  069%=      5-min Rain = 0
KPD3 141129Z 34007KT 20/15 A302 RMK A01 T02030145  RH  069%=      5-min Rain = 0
KPD3 141130Z 34006KT 20/15 A302 RMK A01 T02020145  RH  070%=      5-min Rain = 0
KPD3 141131Z 34006KT 20/15 A302 RMK A01 T02020145  RH  070%=      5-min Rain = 0
KPD3 141132Z 34006KT 20/15 A302 RMK A01 T02010145  RH  070%=      5-min Rain = 0
KPD3 141133Z 33006KT 20/15 A302 RMK A01 T02010145  RH  070%=      5-min Rain = 0
KPD3 141134Z 33007KT 20/15 A302 RMK A01 T02010145  RH  070%=      5-min Rain = 0
KPD3 141135Z 32005KT 20/14 A3021 RMK A01 T02000144  RH  070%=      5-min Rain = 0
KPD3 141136Z 33006KT 20/14 A3021 RMK A01 T02000144  RH  070%=      5-min Rain = 0
KPD3 141137Z 33006KT 20/14 A3021 RMK A01 T01990144  RH  070%=      5-min Rain = 0
KPD3 141138Z 33007KT 20/14 A3021 RMK A01 T01990144  RH  071%=      5-min Rain = 0
KPD3 141139Z 33007KT 20/14 A3021 RMK A01 T01980144  RH  071%=      5-min Rain = 0
KPD3 141140Z 34008KT 20/14 A3022 RMK A01 T01980144  RH  071%=      5-min Rain = 0
KPD3 141141Z 34009KT 20/14 A3022 RMK A01 T01980144  RH  071%=      5-min Rain = 0
KPD3 141142Z 34009KT 20/14 A3021 RMK A01 T01980144  RH  071%=      5-min Rain = 0
KPD3 141143Z 34009KT 20/14 A3021 RMK A01 T01970144  RH  071%=      5-min Rain = 0
KPD3 141144Z 34008KT 20/14 A3021 RMK A01 T01970144  RH  071%=      5-min Rain = 0
KPD3 141145Z 35009KT 20/14 A3021 RMK A01 T01960143  RH  071%=      5-min Rain = 0
KPD3 141146Z 35008KT 20/14 A302 RMK A01 T01970143  RH  071%=      5-min Rain = 0
KPD3 141147Z 35009KT 20/14 A3021 RMK A01 T01970143  RH  071%=      5-min Rain = 0
KPD3 141148Z 35008KT 20/14 A3021 RMK A01 T01970143  RH  071%=      5-min Rain = 0
KPD3 141149Z 34010KT 20/14 A3021 RMK A01 T01970143  RH  071%=      5-min Rain = 0
KPD3 141150Z 35008KT 20/14 A3021 RMK A01 T01960143  RH  071%=      5-min Rain = 0
KPD3 141151Z 35008KT 20/14 A3021 RMK A01 T01960143  RH  071%=      5-min Rain = 0
KPD3 141152Z 34007KT 20/14 A3021 RMK A01 T01960143  RH  071%=      5-min Rain = 0
KPD3 141153Z 34008KT 20/14 A3022 RMK A01 T01960142  RH  071%=      5-min Rain = 0
KPD3 141154Z 35008KT 20/14 A3022 RMK A01 T01960142  RH  071%=      5-min Rain = 0
KPD3 141155Z 35007KT 20/14 A3022 RMK A01 T01960142  RH  071%=      5-min Rain = 0
KPD3 141156Z 35006KT 20/14 A3022 RMK A01 T01960142  RH  071%=      5-min Rain = 0
KPD3 141157Z 35007KT 20/14 A3022 RMK A01 T01960142  RH  071%=      5-min Rain = 0
KPD3 141158Z 35007KT 20/14 A3022 RMK A01 T01950142  RH  071%=      5-min Rain = 0
KPD3 141159Z 34008KT 20/14 A3022 RMK A01 T01950141  RH  071%=      5-min Rain = 0
KPD3 141200Z 34008KT 19/14 A3022 RMK A01 T01940141  RH  071%=      5-min Rain = 0
KPD3 141201Z 34007KT 19/14 A3022 RMK A01 T01940141  RH  071%=      5-min Rain = 0
KPD3 141202Z 35006KT 19/14 A3022 RMK A01 T01940141  RH  072%=      5-min Rain = 0
KPD3 141203Z 35006KT 19/14 A3022 RMK A01 T01930141  RH  072%=      5-min Rain = 0
KPD3 141204Z 35006KT 19/14 A3022 RMK A01 T01930141  RH  072%=      5-min Rain = 0
KPD3 141205Z 34008KT 19/14 A3022 RMK A01 T01930141  RH  072%=      5-min Rain = 0
KPD3 141206Z 34008KT 19/14 A3022 RMK A01 T01930140  RH  072%=      5-min Rain = 0
KPD3 141207Z 34007KT 19/14 A3022 RMK A01 T01920140  RH  072%=      5-min Rain = 0
KPD3 141208Z 34005KT 19/14 A3022 RMK A01 T01920140  RH  072%=      5-min Rain = 0
KPD3 141209Z 34004KT 19/14 A3022 RMK A01 T01930140  RH  072%=      5-min Rain = 0
KPD3 141210Z 34004KT 19/14 A3022 RMK A01 T01920140  RH  072%=      5-min Rain = 0
KPD3 141211Z 33004KT 19/14 A3022 RMK A01 T01920140  RH  072%=      5-min Rain = 0
KPD3 141212Z 32004KT 19/14 A3022 RMK A01 T01920140  RH  072%=      5-min Rain = 0
KPD3 141213Z 31003KT 19/14 A3022 RMK A01 T01920140  RH  072%=      5-min Rain = 0
KPD3 141214Z 30003KT 19/14 A3023 RMK A01 T01920140  RH  072%=      5-min Rain = 0
KPD3 141215Z 30003KT 19/14 A3022 RMK A01 T01920140  RH  072%=      5-min Rain = 0
KPD3 141216Z 29003KT 19/14 A3022 RMK A01 T01920140  RH  072%=      5-min Rain = 0
KPD3 141217Z 31004KT 19/14 A3022 RMK A01 T01910140  RH  072%=      5-min Rain = 0
KPD3 141218Z 31004KT 19/14 A3022 RMK A01 T01920140  RH  072%=      5-min Rain = 0
KPD3 141219Z 31005KT 19/14 A3022 RMK A01 T01910140  RH  072%=      5-min Rain = 0
KPD3 141220Z 31004KT 19/14 A3022 RMK A01 T01910140  RH  072%=      5-min Rain = 0
KPD3 141221Z 31004KT 19/14 A3022 RMK A01 T01900140  RH  073%=      5-min Rain = 0
KPD3 141222Z 31004KT 19/14 A3022 RMK A01 T01900140  RH  073%=      5-min Rain = 0
KPD3 141223Z 31004KT 19/14 A3022 RMK A01 T01900140  RH  073%=      5-min Rain = 0
KPD3 141224Z 30004KT 19/14 A3021 RMK A01 T01900141  RH  073%=      5-min Rain = 0
KPD3 141225Z 30003KT 19/14 A3021 RMK A01 T01900141  RH  073%=      5-min Rain = 0
KPD3 141226Z 30002KT 19/14 A3021 RMK A01 T01900141  RH  073%=      5-min Rain = 0
KPD3 141227Z 29002KT 19/14 A3021 RMK A01 T01900141  RH  073%=      5-min Rain = 0
KPD3 141228Z 27001KT 19/14 A3021 RMK A01 T01900141  RH  073%=      5-min Rain = 0
KPD3 141229Z 26002KT 19/14 A3021 RMK A01 T01900141  RH  073%=      5-min Rain = 0
KPD3 141230Z 25002KT 19/14 A3021 RMK A01 T01900141  RH  073%=      5-min Rain = 0
KPD3 141231Z 25003KT 19/14 A3021 RMK A01 T01900142  RH  074%=      5-min Rain = 0
KPD3 141232Z 25003KT 19/14 A3021 RMK A01 T01890141  RH  074%=      5-min Rain = 0
KPD3 141233Z 25003KT 19/14 A3021 RMK A01 T01890141  RH  074%=      5-min Rain = 0
KPD3 141234Z 26004KT 19/14 A3021 RMK A01 T01880141  RH  074%=      5-min Rain = 0
KPD3 141235Z 26004KT 19/14 A3021 RMK A01 T01880141  RH  074%=      5-min Rain = 0
KPD3 141236Z 27004KT 19/14 A3021 RMK A01 T01890142  RH  074%=      5-min Rain = 0
KPD3 141237Z 28004KT 19/14 A3022 RMK A01 T01890142  RH  074%=      5-min Rain = 0
KPD3 141238Z 28005KT 19/14 A3022 RMK A01 T01900142  RH  073%=      5-min Rain = 0
KPD3 141239Z 28004KT 19/14 A3022 RMK A01 T01910142  RH  073%=      5-min Rain = 0
KPD3 141240Z 28004KT 19/14 A3022 RMK A01 T01920142  RH  073%=      5-min Rain = 0
KPD3 141241Z 28004KT 19/14 A3022 RMK A01 T01930142  RH  072%=      5-min Rain = 0
KPD3 141242Z 29004KT 19/14 A3022 RMK A01 T01940143  RH  072%=      5-min Rain = 0
KPD3 141243Z 28004KT 20/14 A3022 RMK A01 T01950143  RH  072%=      5-min Rain = 0
KPD3 141244Z 28004KT 20/14 A3022 RMK A01 T01950143  RH  072%=      5-min Rain = 0
KPD3 141245Z 27003KT 20/14 A3022 RMK A01 T01950143  RH  072%=      5-min Rain = 0
KPD3 141246Z 27003KT 20/14 A3022 RMK A01 T01960143  RH  071%=      5-min Rain = 0
KPD3 141247Z 26002KT 20/14 A3022 RMK A01 T01960142  RH  071%=      5-min Rain = 0
KPD3 141248Z 26002KT 20/14 A3022 RMK A01 T01970143  RH  071%=      5-min Rain = 0
KPD3 141249Z 25002KT 20/14 A3022 RMK A01 T01970143  RH  071%=      5-min Rain = 0
KPD3 141250Z 27001KT 20/14 A3022 RMK A01 T01970143  RH  071%=      5-min Rain = 0
KPD3 141251Z 26002KT 20/14 A3022 RMK A01 T01970143  RH  071%=      5-min Rain = 0
KPD3 141252Z 26001KT 20/14 A3022 RMK A01 T01970143  RH  071%=      5-min Rain = 0
KPD3 141253Z 28002KT 20/14 A3022 RMK A01 T01970143  RH  071%=      5-min Rain = 0
KPD3 141254Z 28002KT 20/14 A3022 RMK A01 T01980142  RH  070%=      5-min Rain = 0
KPD3 141255Z 28002KT 20/14 A3022 RMK A01 T01980142  RH  070%=      5-min Rain = 0
KPD3 141256Z 27002KT 20/14 A3022 RMK A01 T01990142  RH  070%=      5-min Rain = 0
KPD3 141257Z 27002KT 20/14 A3022 RMK A01 T01990142  RH  070%=      5-min Rain = 0
KPD3 141258Z 27002KT 20/14 A3022 RMK A01 T01990142  RH  070%=      5-min Rain = 0
KPD3 141259Z 27002KT 20/14 A3022 RMK A01 T02000143  RH  070%=      5-min Rain = 0
KPD3 141300Z 26001KT 20/14 A3022 RMK A01 T01990142  RH  069%=      5-min Rain = 0
KPD3 141301Z 25001KT 20/14 A3022 RMK A01 T02000143  RH  069%=      5-min Rain = 0
KPD3 141302Z 24001KT 20/14 A3022 RMK A01 T02000142  RH  069%=      5-min Rain = 0
KPD3 141303Z 21002KT 20/14 A3022 RMK A01 T02000142  RH  069%=      5-min Rain = 0
KPD3 141304Z 20002KT 20/14 A3022 RMK A01 T02010142  RH  069%=      5-min Rain = 0
KPD3 141305Z 19003KT 20/14 A3022 RMK A01 T02010143  RH  069%=      5-min Rain = 0
KPD3 141306Z 18004KT 20/14 A3022 RMK A01 T02010143  RH  069%=      5-min Rain = 0
KPD3 141307Z 18004KT 20/14 A3022 RMK A01 T02020143  RH  069%=      5-min Rain = 0
KPD3 141308Z 20003KT 20/14 A3022 RMK A01 T02020144  RH  069%=      5-min Rain = 0
KPD3 141309Z 22003KT 20/14 A3022 RMK A01 T02020144  RH  069%=      5-min Rain = 0
KPD3 141310Z 24003KT 20/14 A3022 RMK A01 T02020144  RH  069%=      5-min Rain = 0
KPD3 141311Z 25004KT 20/14 A3022 RMK A01 T02020144  RH  069%=      5-min Rain = 0
KPD3 141312Z 27005KT 20/14 A3022 RMK A01 T02020143  RH  069%=      5-min Rain = 0
KPD3 141313Z 28005KT 20/14 A3022 RMK A01 T02030144  RH  069%=      5-min Rain = 0
KPD3 141314Z 28005KT 20/14 A3023 RMK A01 T02040144  RH  068%=      5-min Rain = 0
KPD3 141315Z 29005KT 20/14 A3023 RMK A01 T02040143  RH  068%=      5-min Rain = 0
KPD3 141316Z 29005KT 21/14 A3023 RMK A01 T02050143  RH  068%=      5-min Rain = 0
KPD3 141317Z 29005KT 21/14 A3023 RMK A01 T02050144  RH  068%=      5-min Rain = 0
KPD3 141318Z 30005KT 21/14 A3023 RMK A01 T02060143  RH  067%=      5-min Rain = 0
KPD3 141319Z 30004KT 21/14 A3023 RMK A01 T02060144  RH  067%=      5-min Rain = 0
KPD3 141320Z 30004KT 21/14 A3023 RMK A01 T02070144  RH  067%=      5-min Rain = 0
KPD3 141321Z 30004KT 21/14 A3023 RMK A01 T02070144  RH  067%=      5-min Rain = 0
KPD3 141322Z 30003KT 21/14 A3023 RMK A01 T02080144  RH  067%=      5-min Rain = 0
KPD3 141323Z 29003KT 21/14 A3023 RMK A01 T02080144  RH  067%=      5-min Rain = 0
KPD3 141324Z 29003KT 21/14 A3023 RMK A01 T02080144  RH  067%=      5-min Rain = 0
KPD3 141325Z 29003KT 21/14 A3023 RMK A01 T02090144  RH  066%=      5-min Rain = 0
KPD3 141326Z 29003KT 21/15 A3023 RMK A01 T02090145  RH  067%=      5-min Rain = 0
KPD3 141327Z 29002KT 21/15 A3023 RMK A01 T02100145  RH  067%=      5-min Rain = 0
KPD3 141328Z 27002KT 21/15 A3023 RMK A01 T02100145  RH  066%=      5-min Rain = 0
KPD3 141329Z 27001KT 21/15 A3023 RMK A01 T02100145  RH  066%=      5-min Rain = 0
KPD3 141330Z 27001KT 21/14 A3023 RMK A01 T02100144  RH  066%=      5-min Rain = 0
KPD3 141331Z 26001KT 21/14 A3023 RMK A01 T02100143  RH  066%=      5-min Rain = 0
KPD3 141332Z 26001KT 21/14 A3023 RMK A01 T02100144  RH  066%=      5-min Rain = 0
KPD3 141333Z 26001KT 21/14 A3023 RMK A01 T02100144  RH  066%=      5-min Rain = 0
KPD3 141334Z 28001KT 21/15 A3023 RMK A01 T02110145  RH  066%=      5-min Rain = 0
KPD3 141335Z 28003KT 21/15 A3023 RMK A01 T02110145  RH  066%=      5-min Rain = 0
KPD3 141336Z 28002KT 21/14 A3023 RMK A01 T02120144  RH  065%=      5-min Rain = 0
KPD3 141337Z 26002KT 21/14 A3023 RMK A01 T02120142  RH  064%=      5-min Rain = 0
KPD3 141338Z 26003KT 21/14 A3023 RMK A01 T02140142  RH  064%=      5-min Rain = 0
KPD3 141339Z 24003KT 21/14 A3023 RMK A01 T02140141  RH  063%=      5-min Rain = 0
KPD3 141340Z 23002KT 22/14 A3023 RMK A01 T02150141  RH  063%=      5-min Rain = 0
KPD3 141341Z 28002KT 22/14 A3023 RMK A01 T02160142  RH  063%=      5-min Rain = 0
KPD3 141342Z 27001KT 22/14 A3023 RMK A01 T02160142  RH  063%=      5-min Rain = 0
KPD3 141343Z 27002KT 22/14 A3023 RMK A01 T02170142  RH  063%=      5-min Rain = 0
KPD3 141344Z 27002KT 22/14 A3023 RMK A01 T02160143  RH  063%=      5-min Rain = 0
KPD3 141345Z 28002KT 22/14 A3023 RMK A01 T02170144  RH  063%=      5-min Rain = 0
KPD3 141346Z 27001KT 22/14 A3023 RMK A01 T02170143  RH  063%=      5-min Rain = 0
KPD3 141347Z 28002KT 22/14 A3023 RMK A01 T02170144  RH  063%=      5-min Rain = 0
KPD3 141348Z 27003KT 22/15 A3023 RMK A01 T02180145  RH  063%=      5-min Rain = 0
KPD3 141349Z 26003KT 22/14 A3023 RMK A01 T02170144  RH  063%=      5-min Rain = 0
KPD3 141350Z 27003KT 22/15 A3023 RMK A01 T02180145  RH  063%=      5-min Rain = 0
KPD3 141351Z 25003KT 22/15 A3023 RMK A01 T02180145  RH  063%=      5-min Rain = 0
KPD3 141352Z 25003KT 22/15 A3023 RMK A01 T02180145  RH  063%=      5-min Rain = 0
KPD3 141353Z 24003KT 22/15 A3023 RMK A01 T02180145  RH  063%=      5-min Rain = 0
KPD3 141354Z 24003KT 22/15 A3023 RMK A01 T02190146  RH  063%=      5-min Rain = 0
KPD3 141355Z 22003KT 22/15 A3023 RMK A01 T02190145  RH  063%=      5-min Rain = 0
KPD3 141356Z 20003KT 22/14 A3022 RMK A01 T02200144  RH  062%=      5-min Rain = 0
KPD3 141357Z 18003KT 22/14 A3022 RMK A01 T02200144  RH  062%=      5-min Rain = 0
KPD3 141358Z 17003KT 22/15 A3022 RMK A01 T02210145  RH  062%=      5-min Rain = 0
KPD3 141359Z 17004KT 22/15 A3022 RMK A01 T02220146  RH  062%=      5-min Rain = 0
KPD3 141400Z 18003KT 22/15 A3022 RMK A01 T02220145  RH  062%=      5-min Rain = 0
KPD3 141401Z 21003KT 22/15 A3022 RMK A01 T02220145  RH  062%=      5-min Rain = 0
KPD3 141402Z 22002KT 22/15 A3023 RMK A01 T02220146  RH  062%=      5-min Rain = 0
KPD3 141403Z 24002KT 22/15 A3023 RMK A01 T02220146  RH  062%=      5-min Rain = 0
KPD3 141404Z 25002KT 22/15 A3023 RMK A01 T02220146  RH  062%=      5-min Rain = 0
KPD3 141405Z 25002KT 22/15 A3023 RMK A01 T02220146  RH  062%=      5-min Rain = 0
KPD3 141406Z 24002KT 22/15 A3023 RMK A01 T02220145  RH  062%=      5-min Rain = 0
KPD3 141407Z 23003KT 22/15 A3023 RMK A01 T02220145  RH  062%=      5-min Rain = 0
KPD3 141408Z 23004KT 22/14 A3023 RMK A01 T02220144  RH  061%=      5-min Rain = 0
KPD3 141409Z 22004KT 22/14 A3023 RMK A01 T02220144  RH  061%=      5-min Rain = 0
KPD3 141410Z 21004KT 22/14 A3023 RMK A01 T02210143  RH  061%=      5-min Rain = 0
KPD3 141411Z 19005KT 22/14 A3023 RMK A01 T02220144  RH  061%=      5-min Rain = 0
KPD3 141412Z 18004KT 22/14 A3023 RMK A01 T02220144  RH  061%=      5-min Rain = 0
KPD3 141413Z 17004KT 22/14 A3023 RMK A01 T02220143  RH  061%=      5-min Rain = 0
KPD3 141414Z 18003KT 22/14 A3023 RMK A01 T02210143  RH  061%=      5-min Rain = 0
KPD3 141415Z 19002KT 22/14 A3023 RMK A01 T02210143  RH  061%=      5-min Rain = 0
KPD3 141416Z 18003KT 22/14 A3023 RMK A01 T02210143  RH  061%=      5-min Rain = 0
KPD3 141417Z 18004KT 22/14 A3023 RMK A01 T02210143  RH  061%=      5-min Rain = 0
KPD3 141418Z 19004KT 22/14 A3023 RMK A01 T02210143  RH  061%=      5-min Rain = 0
KPD3 141419Z 19004KT 22/14 A3023 RMK A01 T02220144  RH  061%=      5-min Rain = 0
KPD3 141420Z 18004KT 22/14 A3023 RMK A01 T02220143  RH  061%=      5-min Rain = 0
KPD3 141421Z 17004KT 22/14 A3023 RMK A01 T02230143  RH  061%=      5-min Rain = 0
KPD3 141422Z 18003KT 22/14 A3022 RMK A01 T02230143  RH  060%=      5-min Rain = 0
KPD3 141423Z 17003KT 22/14 A3022 RMK A01 T02230142  RH  060%=      5-min Rain = 0
KPD3 141424Z 17003KT 22/14 A3022 RMK A01 T02240143  RH  060%=      5-min Rain = 0
KPD3 141425Z 15002KT 22/14 A3022 RMK A01 T02240143  RH  060%=      5-min Rain = 0
KPD3 141426Z 14003KT 23/14 A3022 RMK A01 T02250142  RH  060%=      5-min Rain = 0
KPD3 141427Z 14003KT 23/14 A3022 RMK A01 T02250143  RH  060%=      5-min Rain = 0
KPD3 141428Z 14003KT 23/14 A3022 RMK A01 T02260143  RH  059%=      5-min Rain = 0
KPD3 141429Z 14002KT 23/14 A3022 RMK A01 T02260143  RH  059%=      5-min Rain = 0
KPD3 141430Z 12002KT 23/14 A3022 RMK A01 T02260143  RH  059%=      5-min Rain = 0
KPD3 141431Z 13002KT 23/14 A3022 RMK A01 T02260143  RH  059%=      5-min Rain = 0
KPD3 141432Z 13003KT 23/14 A3022 RMK A01 T02270142  RH  059%=      5-min Rain = 0
KPD3 141433Z 15003KT 23/14 A3022 RMK A01 T02270142  RH  059%=      5-min Rain = 0
KPD3 141434Z 15003KT 23/14 A3022 RMK A01 T02270143  RH  059%=      5-min Rain = 0
KPD3 141435Z 16003KT 23/14 A3022 RMK A01 T02270143  RH  059%=      5-min Rain = 0
KPD3 141436Z 18003KT 23/14 A3022 RMK A01 T02280143  RH  059%=      5-min Rain = 0
KPD3 141437Z 19002KT 23/14 A3022 RMK A01 T02280143  RH  059%=      5-min Rain = 0
KPD3 141438Z 19002KT 23/14 A3022 RMK A01 T02280144  RH  059%=      5-min Rain = 0
KPD3 141439Z 19002KT 23/14 A3023 RMK A01 T02290143  RH  058%=      5-min Rain = 0
KPD3 141440Z 19003KT 23/14 A3023 RMK A01 T02300143  RH  058%=      5-min Rain = 0
KPD3 141441Z 19002KT 23/14 A3023 RMK A01 T02300143  RH  058%=      5-min Rain = 0
KPD3 141442Z 20002KT 23/14 A3023 RMK A01 T02300143  RH  058%=      5-min Rain = 0
KPD3 141443Z 20002KT 23/14 A3023 RMK A01 T02300144  RH  058%=      5-min Rain = 0
KPD3 141444Z 24001KT 23/14 A3023 RMK A01 T02310144  RH  058%=      5-min Rain = 0
KPD3 141445Z 24002KT 23/14 A3023 RMK A01 T02310144  RH  058%=      5-min Rain = 0
KPD3 141446Z 24002KT 23/14 A3023 RMK A01 T02320143  RH  058%=      5-min Rain = 0
KPD3 141447Z 26002KT 23/14 A3023 RMK A01 T02320144  RH  058%=      5-min Rain = 0
KPD3 141448Z 27001KT 23/14 A3023 RMK A01 T02320143  RH  057%=      5-min Rain = 0
KPD3 141449Z 27002KT 23/14 A3023 RMK A01 T02330144  RH  057%=      5-min Rain = 0
KPD3 141450Z 26002KT 23/14 A3023 RMK A01 T02330144  RH  058%=      5-min Rain = 0
KPD3 141451Z 25001KT 23/15 A3023 RMK A01 T02330145  RH  058%=      5-min Rain = 0
KPD3 141452Z 24001KT 23/14 A3022 RMK A01 T02320143  RH  057%=      5-min Rain = 0
KPD3 141453Z 21001KT 23/14 A3022 RMK A01 T02320144  RH  058%=      5-min Rain = 0
KPD3 141454Z 19000KT 23/14 A3022 RMK A01 T02320144  RH  058%=      5-min Rain = 0
KPD3 141455Z 17000KT 23/14 A3021 RMK A01 T02320144  RH  058%=      5-min Rain = 0
KPD3 141456Z 00000KT 23/15 A3021 RMK A01 T02320145  RH  058%=      5-min Rain = 0
KPD3 141457Z 00000KT 23/15 A3021 RMK A01 T02320145  RH  058%=      5-min Rain = 0
KPD3 141458Z 13001KT 23/15 A3021 RMK A01 T02330145  RH  058%=      5-min Rain = 0
KPD3 141459Z 08001KT 23/14 A3021 RMK A01 T02330144  RH  057%=      5-min Rain = 0
KPD3 141500Z 09002KT 23/14 A3021 RMK A01 T02340144  RH  057%=      5-min Rain = 0
KPD3 141501Z 08004KT 23/14 A3021 RMK A01 T02340144  RH  057%=      5-min Rain = 0
KPD3 141502Z 08003KT 23/14 A3021 RMK A01 T02330143  RH  057%=      5-min Rain = 0
KPD3 141503Z 09002KT 23/14 A3021 RMK A01 T02330144  RH  057%=      5-min Rain = 0
KPD3 141504Z 07003KT 23/14 A3021 RMK A01 T02330143  RH  057%=      5-min Rain = 0
KPD3 141505Z 09004KT 23/15 A3021 RMK A01 T02320145  RH  058%=      5-min Rain = 0
KPD3 141506Z 11003KT 23/14 A3021 RMK A01 T02320144  RH  057%=      5-min Rain = 0
KPD3 141507Z 10002KT 23/15 A3021 RMK A01 T02330145  RH  058%=      5-min Rain = 0
KPD3 141508Z 10001KT 23/15 A3021 RMK A01 T02330145  RH  057%=      5-min Rain = 0
KPD3 141509Z 11001KT 23/14 A3022 RMK A01 T02330144  RH  057%=      5-min Rain = 0
KPD3 141510Z 11001KT 23/14 A3022 RMK A01 T02330144  RH  057%=      5-min Rain = 0
KPD3 141511Z 11002KT 23/14 A3021 RMK A01 T02330144  RH  057%=      5-min Rain = 0
KPD3 141512Z 11003KT 23/14 A3021 RMK A01 T02330144  RH  057%=      5-min Rain = 0
KPD3 141513Z 11003KT 23/14 A3021 RMK A01 T02330144  RH  057%=      5-min Rain = 0
KPD3 141514Z 11003KT 23/15 A3021 RMK A01 T02340145  RH  057%=      5-min Rain = 0
KPD3 141515Z 14002KT 24/14 A3022 RMK A01 T02350144  RH  057%=      5-min Rain = 0
KPD3 141516Z 16002KT 24/14 A3022 RMK A01 T02360143  RH  056%=      5-min Rain = 0
KPD3 141517Z 17002KT 24/14 A3022 RMK A01 T02360143  RH  056%=      5-min Rain = 0
KPD3 141518Z 17003KT 24/14 A3021 RMK A01 T02360144  RH  056%=      5-min Rain = 0
KPD3 141519Z 14003KT 24/15 A3021 RMK A01 T02360145  RH  056%=      5-min Rain = 0
KPD3 141520Z 13004KT 24/15 A3021 RMK A01 T02360145  RH  056%=      5-min Rain = 0
KPD3 141521Z 14003KT 24/15 A3021 RMK A01 T02360145  RH  057%=      5-min Rain = 0
KPD3 141522Z 15002KT 24/15 A3021 RMK A01 T02360146  RH  057%=      5-min Rain = 0
KPD3 141523Z 19001KT 24/15 A3021 RMK A01 T02370145  RH  056%=      5-min Rain = 0
KPD3 141524Z 23002KT 24/15 A3022 RMK A01 T02370145  RH  056%=      5-min Rain = 0
KPD3 141525Z 23003KT 24/15 A3022 RMK A01 T02370145  RH  056%=      5-min Rain = 0
KPD3 141526Z 25003KT 24/15 A3022 RMK A01 T02370145  RH  056%=      5-min Rain = 0
KPD3 141527Z 23003KT 24/15 A3022 RMK A01 T02370146  RH  057%=      5-min Rain = 0
KPD3 141528Z 22002KT 24/15 A3022 RMK A01 T02370145  RH  056%=      5-min Rain = 0
KPD3 141529Z 19002KT 24/14 A3022 RMK A01 T02370144  RH  056%=      5-min Rain = 0
KPD3 141530Z 19004KT 24/15 A3022 RMK A01 T02370145  RH  056%=      5-min Rain = 0
KPD3 141531Z 18002KT 24/14 A3022 RMK A01 T02380144  RH  056%=      5-min Rain = 0
KPD3 141532Z 18002KT 24/15 A3022 RMK A01 T02380145  RH  056%=      5-min Rain = 0
KPD3 141533Z 17003KT 24/15 A3022 RMK A01 T02390146  RH  056%=      5-min Rain = 0
KPD3 141534Z 18003KT 24/15 A3022 RMK A01 T02390146  RH  056%=      5-min Rain = 0
KPD3 141535Z 20002KT 24/15 A3022 RMK A01 T02400147  RH  056%=      5-min Rain = 0
KPD3 141536Z 20002KT 24/15 A3021 RMK A01 T02410146  RH  055%=      5-min Rain = 0
KPD3 141537Z 21001KT 24/15 A3021 RMK A01 T02410147  RH  056%=      5-min Rain = 0
KPD3 141538Z 19003KT 24/15 A3021 RMK A01 T02410147  RH  056%=      5-min Rain = 0
KPD3 141539Z 21002KT 24/15 A3021 RMK A01 T02410147  RH  056%=      5-min Rain = 0
KPD3 141540Z 22002KT 24/15 A3021 RMK A01 T02420147  RH  056%=      5-min Rain = 0
KPD3 141541Z 26001KT 24/15 A3021 RMK A01 T02420148  RH  056%=      5-min Rain = 0
KPD3 141542Z 24001KT 24/15 A3021 RMK A01 T02430148  RH  055%=      5-min Rain = 0
KPD3 141543Z 23001KT 24/15 A3022 RMK A01 T02440147  RH  055%=      5-min Rain = 0
KPD3 141544Z 18001KT 24/15 A3022 RMK A01 T02430147  RH  055%=      5-min Rain = 0
KPD3 141545Z 23001KT 24/15 A3022 RMK A01 T02440149  RH  055%=      5-min Rain = 0
KPD3 141546Z 21002KT 25/15 A3022 RMK A01 T02460150  RH  055%=      5-min Rain = 0
KPD3 141547Z 21002KT 25/15 A3022 RMK A01 T02480150  RH  055%=      5-min Rain = 0
KPD3 141548Z 24001KT 25/15 A3022 RMK A01 T02480149  RH  054%=      5-min Rain = 0
KPD3 141549Z 15001KT 25/15 A3022 RMK A01 T02490150  RH  054%=      5-min Rain = 0
KPD3 141550Z 21001KT 25/15 A3022 RMK A01 T02500150  RH  054%=      5-min Rain = 0
KPD3 141551Z 25001KT 25/15 A3022 RMK A01 T02510150  RH  053%=      5-min Rain = 0
KPD3 141552Z 32001KT 25/15 A3022 RMK A01 T02510150  RH  053%=      5-min Rain = 0
KPD3 141553Z 32002KT 25/15 A3022 RMK A01 T02520151  RH  053%=      5-min Rain = 0
KPD3 141554Z 33003KT 25/15 A3022 RMK A01 T02520149  RH  053%=      5-min Rain = 0
KPD3 141555Z 33004KT 25/15 A3022 RMK A01 T02530151  RH  053%=      5-min Rain = 0
KPD3 141556Z 34003KT 26/15 A3023 RMK A01 T02550150  RH  052%=      5-min Rain = 0
KPD3 141557Z 34003KT 26/15 A3023 RMK A01 T02550151  RH  053%=      5-min Rain = 0
KPD3 141558Z 35004KT 26/15 A3023 RMK A01 T02570151  RH  052%=      5-min Rain = 0
KPD3 141559Z 01002KT 26/15 A3023 RMK A01 T02590152  RH  051%=      5-min Rain = 0
KPD3 141600Z 34002KT 26/15 A3023 RMK A01 T02610153  RH  051%=      5-min Rain = 0
KPD3 141601Z 33004KT 26/15 A3023 RMK A01 T02620153  RH  051%=      5-min Rain = 0
KPD3 141602Z 35004KT 27/16 A3023 RMK A01 T02650155  RH  051%=      5-min Rain = 0
KPD3 141603Z 33003KT 27/15 A3023 RMK A01 T02670154  RH  050%=      5-min Rain = 0
KPD3 141604Z 27002KT 27/16 A3022 RMK A01 T02670155  RH  050%=      5-min Rain = 0
KPD3 141605Z 23002KT 27/15 A3022 RMK A01 T02660154  RH  050%=      5-min Rain = 0
KPD3 141606Z 24002KT 27/15 A3022 RMK A01 T02650154  RH  050%=      5-min Rain = 0
KPD3 141607Z 23002KT 26/15 A3022 RMK A01 T02640153  RH  051%=      5-min Rain = 0
KPD3 141608Z 26003KT 26/16 A3022 RMK A01 T02630155  RH  051%=      5-min Rain = 0
KPD3 141609Z 26003KT 27/16 A3022 RMK A01 T02650157  RH  051%=      5-min Rain = 0
KPD3 141610Z 33003KT 27/16 A3022 RMK A01 T02680159  RH  051%=      5-min Rain = 0
KPD3 141611Z 33005KT 27/16 A3022 RMK A01 T02710158  RH  050%=      5-min Rain = 0
KPD3 141612Z 34004KT 27/16 A3022 RMK A01 T02710159  RH  050%=      5-min Rain = 0
KPD3 141613Z 35004KT 27/16 A3022 RMK A01 T02710159  RH  050%=      5-min Rain = 0
KPD3 141614Z 00003KT 27/16 A3022 RMK A01 T02720159  RH  050%=      5-min Rain = 0
KPD3 141615Z 36005KT 27/16 A3022 RMK A01 T02720161  RH  050%=      5-min Rain = 0
KPD3 141616Z 01000KT 27/16 A3022 RMK A01 T02720159  RH  050%=      5-min Rain = 0
KPD3 141617Z 31005KT 27/16 A3022 RMK A01 T02720161  RH  051%=      5-min Rain = 0
KPD3 141618Z 31005KT 27/16 A3022 RMK A01 T02730158  RH  049%=      5-min Rain = 0
KPD3 141619Z 34007KT 27/16 A3022 RMK A01 T02730161  RH  050%=      5-min Rain = 0
KPD3 141620Z 00009KT 28/16 A3023 RMK A01 T02770160  RH  049%=      5-min Rain = 0
KPD3 141621Z 35006KT 28/16 A3022 RMK A01 T02780159  RH  048%=      5-min Rain = 0
KPD3 141622Z 36004KT 28/16 A3022 RMK A01 T02760159  RH  049%=      5-min Rain = 0
KPD3 141623Z 00004G9KT 27/16 A3022 RMK A01 T02730158  RH  049%=      5-min Rain = 0
KPD3 141624Z 01007KT 27/16 A3022 RMK A01 T02710157  RH  050%=      5-min Rain = 0
KPD3 141625Z 00006KT 27/16 A3022 RMK A01 T02700158  RH  050%=      5-min Rain = 0
KPD3 141626Z 02005KT 27/16 A3022 RMK A01 T02690158  RH  051%=      5-min Rain = 0
KPD3 141627Z 01004KT 27/16 A3022 RMK A01 T02680159  RH  051%=      5-min Rain = 0
KPD3 141628Z 04003KT 27/16 A3022 RMK A01 T02680159  RH  051%=      5-min Rain = 0
KPD3 141629Z 04004KT 27/16 A3022 RMK A01 T02690159  RH  051%=      5-min Rain = 0
KPD3 141630Z 04003KT 27/16 A3022 RMK A01 T02700160  RH  051%=      5-min Rain = 0
KPD3 141631Z 04003KT 27/16 A3022 RMK A01 T02710159  RH  050%=      5-min Rain = 0
KPD3 141632Z 00004KT 27/16 A3022 RMK A01 T02710160  RH  051%=      5-min Rain = 0
KPD3 141633Z 00005KT 27/16 A3022 RMK A01 T02710160  RH  051%=      5-min Rain = 0
KPD3 141634Z 36003KT 27/16 A3022 RMK A01 T02700159  RH  051%=      5-min Rain = 0
KPD3 141635Z 01006KT 27/16 A3022 RMK A01 T02690159  RH  051%=      5-min Rain = 0
KPD3 141636Z 03006KT 27/16 A3022 RMK A01 T02700158  RH  050%=      5-min Rain = 0
KPD3 141637Z 01008KT 27/16 A3022 RMK A01 T02700158  RH  050%=      5-min Rain = 0
KPD3 141638Z 02009KT 27/16 A3022 RMK A01 T02700159  RH  050%=      5-min Rain = 0
KPD3 141639Z 02007KT 27/16 A3022 RMK A01 T02690159  RH  051%=      5-min Rain = 0
KPD3 141640Z 03006KT 27/16 A3022 RMK A01 T02680159  RH  051%=      5-min Rain = 0
KPD3 141641Z 02005KT 27/16 A3022 RMK A01 T02690160  RH  051%=      5-min Rain = 0
KPD3 141642Z 00006KT 27/16 A3022 RMK A01 T02710160  RH  051%=      5-min Rain = 0
KPD3 141643Z 35005KT 27/16 A3022 RMK A01 T02720160  RH  051%=      5-min Rain = 0
KPD3 141644Z 01006KT 27/16 A3022 RMK A01 T02700161  RH  051%=      5-min Rain = 0
KPD3 141645Z 00007KT 27/16 A3022 RMK A01 T02710161  RH  051%=      5-min Rain = 0
KPD3 141646Z 34006KT 27/16 A3022 RMK A01 T02720162  RH  051%=      5-min Rain = 0
KPD3 141647Z 34005KT 27/16 A3022 RMK A01 T02730162  RH  051%=      5-min Rain = 0
KPD3 141648Z 34005KT 27/16 A3022 RMK A01 T02730163  RH  051%=      5-min Rain = 0
KPD3 141649Z 35008KT 27/16 A3022 RMK A01 T02740162  RH  051%=      5-min Rain = 0
KPD3 141650Z 34007KT 28/16 A3023 RMK A01 T02750163  RH  051%=      5-min Rain = 0
KPD3 141651Z 36006KT 28/16 A3022 RMK A01 T02760162  RH  050%=      5-min Rain = 0
KPD3 141652Z 01005KT 27/16 A3022 RMK A01 T02740162  RH  050%=      5-min Rain = 0
KPD3 141653Z 01006KT 27/16 A3022 RMK A01 T02710161  RH  051%=      5-min Rain = 0
KPD3 141654Z 00006KT 27/16 A3022 RMK A01 T02710161  RH  051%=      5-min Rain = 0
KPD3 141655Z 01008KT 27/16 A3023 RMK A01 T02710162  RH  051%=      5-min Rain = 0
KPD3 141656Z 34007KT 27/16 A3023 RMK A01 T02700163  RH  052%=      5-min Rain = 0
KPD3 141657Z 33006KT 27/16 A3023 RMK A01 T02700163  RH  052%=      5-min Rain = 0
KPD3 141658Z 33006KT 27/16 A3023 RMK A01 T02720161  RH  051%=      5-min Rain = 0
KPD3 141659Z 35005KT 27/16 A3023 RMK A01 T02730163  RH  051%=      5-min Rain = 0
KPD3 141700Z 33007KT 28/16 A3023 RMK A01 T02760164  RH  050%=      5-min Rain = 0
KPD3 141701Z 32006KT 28/16 A3023 RMK A01 T02800158  RH  047%=      5-min Rain = 0
KPD3 141702Z 33006KT 28/16 A3022 RMK A01 T02770158  RH  048%=      5-min Rain = 0
KPD3 141703Z 01006KT 28/16 A3022 RMK A01 T02770159  RH  048%=      5-min Rain = 0
KPD3 141704Z 00007KT 28/16 A3022 RMK A01 T02780158  RH  048%=      5-min Rain = 0
KPD3 141705Z 02008KT 28/16 A3022 RMK A01 T02790156  RH  047%=      5-min Rain = 0
KPD3 141706Z 02004KT 28/16 A3022 RMK A01 T02790156  RH  047%=      5-min Rain = 0
KPD3 141707Z 01005KT 28/16 A3022 RMK A01 T02800156  RH  047%=      5-min Rain = 0
KPD3 141708Z 35004KT 28/16 A3022 RMK A01 T02820159  RH  047%=      5-min Rain = 0
KPD3 141709Z 03003KT 29/16 A3021 RMK A01 T02850161  RH  047%=      5-min Rain = 0
KPD3 141710Z 03007KT 29/16 A3021 RMK A01 T02880161  RH  046%=      5-min Rain = 0
KPD3 141711Z 01013KT 29/15 A3021 RMK A01 T02900148  RH  042%=      5-min Rain = 0
KPD3 141712Z 01010KT 29/14 A3021 RMK A01 T02870139  RH  040%=      5-min Rain = 0
KPD3 141713Z 02009KT 28/14 A3021 RMK A01 T02840140  RH  041%=      5-min Rain = 0
KPD3 141714Z 36006KT 28/14 A3021 RMK A01 T02800140  RH  042%=      5-min Rain = 0
KPD3 141715Z 36005KT 28/14 A3021 RMK A01 T02800140  RH  042%=      5-min Rain = 0
KPD3 141716Z 35005KT 28/14 A3021 RMK A01 T02810140  RH  042%=      5-min Rain = 0
KPD3 141717Z 34006KT 28/14 A3021 RMK A01 T02820139  RH  041%=      5-min Rain = 0
KPD3 141718Z 31006KT 28/14 A3021 RMK A01 T02810137  RH  041%=      5-min Rain = 0
KPD3 141719Z 35010KT 28/14 A3021 RMK A01 T02810137  RH  041%=      5-min Rain = 0
KPD3 141720Z 01008KT 28/14 A3021 RMK A01 T02830136  RH  040%=      5-min Rain = 0
KPD3 141721Z 02012KT 28/14 A3021 RMK A01 T02830136  RH  040%=      5-min Rain = 0
KPD3 141722Z 02009KT 29/14 A3021 RMK A01 T02850136  RH  040%=      5-min Rain = 0
KPD3 141723Z 02008KT 29/14 A3021 RMK A01 T02870135  RH  039%=      5-min Rain = 0
KPD3 141724Z 01012KT 29/14 A3021 RMK A01 T02880136  RH  039%=      5-min Rain = 0
KPD3 141725Z 05012KT 29/14 A3021 RMK A01 T02880136  RH  039%=      5-min Rain = 0
KPD3 141726Z 05011KT 29/14 A3021 RMK A01 T02870136  RH  040%=      5-min Rain = 0
KPD3 141727Z 05012KT 28/14 A3021 RMK A01 T02830135  RH  040%=      5-min Rain = 0
KPD3 141728Z 05011KT 28/14 A3021 RMK A01 T02820136  RH  040%=      5-min Rain = 0
KPD3 141729Z 03015KT 28/13 A3021 RMK A01 T02820134  RH  040%=      5-min Rain = 0
KPD3 141730Z 04012KT 28/13 A302 RMK A01 T02830132  RH  040%=      5-min Rain = 0
KPD3 141731Z 03013KT 28/13 A302 RMK A01 T02820132  RH  040%=      5-min Rain = 0
KPD3 141732Z 04013KT 28/13 A302 RMK A01 T02830132  RH  040%=      5-min Rain = 0
KPD3 141733Z 04012KT 28/13 A302 RMK A01 T02840132  RH  039%=      5-min Rain = 0
KPD3 141734Z 04010KT 28/13 A302 RMK A01 T02830131  RH  039%=      5-min Rain = 0
KPD3 141735Z 04012KT 28/13 A302 RMK A01 T02830133  RH  040%=      5-min Rain = 0
KPD3 141736Z 03013KT 29/13 A302 RMK A01 T02860134  RH  039%=      5-min Rain = 0
KPD3 141737Z 02015KT 29/13 A302 RMK A01 T02890132  RH  038%=      5-min Rain = 0
KPD3 141738Z 00014KT 29/13 A302 RMK A01 T02900131  RH  038%=      5-min Rain = 0
KPD3 141739Z 01010KT 29/13 A302 RMK A01 T02900132  RH  038%=      5-min Rain = 0
KPD3 141740Z 01010KT 29/13 A302 RMK A01 T02930132  RH  037%=      5-min Rain = 0
KPD3 141741Z 01008KT 29/13 A302 RMK A01 T02940132  RH  037%=      5-min Rain = 0
KPD3 141742Z 03008G13KT 29/13 A302 RMK A01 T02910131  RH  037%=      5-min Rain = 0
KPD3 141743Z 06009KT 29/13 A302 RMK A01 T02890132  RH  038%=      5-min Rain = 0
KPD3 141744Z 07008KT 29/13 A302 RMK A01 T02880133  RH  038%=      5-min Rain = 0
KPD3 141745Z 06010KT 29/14 A3019 RMK A01 T02890135  RH  039%=      5-min Rain = 0
KPD3 141746Z 03011KT 30/14 A3019 RMK A01 T02950136  RH  038%=      5-min Rain = 0
KPD3 141747Z 04012KT 30/14 A3019 RMK A01 T03010136  RH  036%=      5-min Rain = 0
KPD3 141748Z 03013KT 30/14 A3019 RMK A01 T03020135  RH  036%=      5-min Rain = 0
KPD3 141749Z 02013KT 30/13 A3019 RMK A01 T02990133  RH  036%=      5-min Rain = 0
KPD3 141750Z 02010KT 30/13 A3019 RMK A01 T02950133  RH  037%=      5-min Rain = 0
KPD3 141751Z 05010KT 30/13 A3019 RMK A01 T02950134  RH  037%=      5-min Rain = 0
KPD3 141752Z 05010KT 30/13 A3019 RMK A01 T02980134  RH  037%=      5-min Rain = 0
KPD3 141753Z 06005KT 30/13 A3019 RMK A01 T02980133  RH  036%=      5-min Rain = 0
KPD3 141754Z 06009KT 30/14 A3019 RMK A01 T02970135  RH  037%=      5-min Rain = 0
KPD3 141755Z 03010KT 30/14 A3019 RMK A01 T03000138  RH  037%=      5-min Rain = 0
KPD3 141756Z 03007KT 30/14 A3019 RMK A01 T03020139  RH  037%=      5-min Rain = 0
KPD3 141757Z 01006G12KT 30/14 A3019 RMK A01 T03010140  RH  037%=      5-min Rain = 0
KPD3 141758Z 04011KT 30/14 A3019 RMK A01 T03000139  RH  037%=      5-min Rain = 0
KPD3 141759Z 04011KT 30/14 A3019 RMK A01 T03000138  RH  037%=      5-min Rain = 0
KPD3 141800Z 03008KT 30/14 A3019 RMK A01 T03010137  RH  037%=      5-min Rain = 0
KPD3 141801Z 02007KT 30/14 A3019 RMK A01 T03000137  RH  037%=      5-min Rain = 0
KPD3 141802Z 04012G17KT 30/14 A3019 RMK A01 T02990137  RH  037%=      5-min Rain = 0
KPD3 141803Z 04011KT 31/14 A3019 RMK A01 T03050138  RH  036%=      5-min Rain = 0
KPD3 141804Z 04011KT 31/14 A3019 RMK A01 T03100137  RH  035%=      5-min Rain = 0
KPD3 141805Z 04011KT 31/14 A3019 RMK A01 T03080135  RH  035%=      5-min Rain = 0
KPD3 141806Z 04010KT 30/13 A3019 RMK A01 T03030134  RH  036%=      5-min Rain = 0
KPD3 141807Z 03009KT 30/13 A3019 RMK A01 T03010134  RH  036%=      5-min Rain = 0
KPD3 141808Z 01007KT 30/14 A3019 RMK A01 T03010135  RH  036%=      5-min Rain = 0
KPD3 141809Z 02013KT 30/14 A3019 RMK A01 T03030136  RH  036%=      5-min Rain = 0
KPD3 141810Z 01012KT 30/14 A3019 RMK A01 T03040135  RH  036%=      5-min Rain = 0
KPD3 141811Z 01009KT 30/14 A3019 RMK A01 T03040136  RH  036%=      5-min Rain = 0
KPD3 141812Z 05007KT 31/14 A3019 RMK A01 T03080137  RH  035%=      5-min Rain = 0
KPD3 141813Z 06007KT 31/13 A3019 RMK A01 T03080133  RH  034%=      5-min Rain = 0
KPD3 141814Z 05008KT 30/13 A3018 RMK A01 T03030134  RH  036%=      5-min Rain = 0
KPD3 141815Z 01007KT 30/14 A3018 RMK A01 T03020135  RH  036%=      5-min Rain = 0
KPD3 141816Z 02008KT 30/14 A3018 RMK A01 T03020136  RH  036%=      5-min Rain = 0
KPD3 141817Z 03009KT 30/14 A3018 RMK A01 T03020136  RH  036%=      5-min Rain = 0
KPD3 141818Z 04007KT 30/14 A3018 RMK A01 T03020138  RH  037%=      5-min Rain = 0
KPD3 141819Z 06004KT 30/14 A3018 RMK A01 T03040136  RH  036%=      5-min Rain = 0
KPD3 141820Z 03004KT 30/14 A3018 RMK A01 T03040138  RH  036%=      5-min Rain = 0
KPD3 141821Z 09005KT 31/14 A3018 RMK A01 T03050138  RH  036%=      5-min Rain = 0
KPD3 141822Z 07010KT 31/14 A3017 RMK A01 T03070136  RH  035%=      5-min Rain = 0
KPD3 141823Z 07012KT 31/14 A3017 RMK A01 T03100136  RH  035%=      5-min Rain = 0
KPD3 141824Z 07006KT 31/14 A3017 RMK A01 T03100135  RH  034%=      5-min Rain = 0
KPD3 141825Z 06008KT 31/14 A3017 RMK A01 T03080136  RH  035%=      5-min Rain = 0
KPD3 141826Z 07011KT 31/14 A3017 RMK A01 T03100136  RH  035%=      5-min Rain = 0
KPD3 141827Z 08011KT 31/14 A3017 RMK A01 T03100135  RH  034%=      5-min Rain = 0
KPD3 141828Z 08007KT 31/13 A3017 RMK A01 T03080134  RH  034%=      5-min Rain = 0
KPD3 141829Z 05008KT 31/13 A3017 RMK A01 T03060134  RH  035%=      5-min Rain = 0
KPD3 141830Z 06008KT 31/13 A3017 RMK A01 T03070132  RH  034%=      5-min Rain = 0
KPD3 141831Z 07008KT 31/13 A3017 RMK A01 T03060132  RH  035%=      5-min Rain = 0
KPD3 141832Z 05006KT 30/13 A3017 RMK A01 T03040131  RH  035%=      5-min Rain = 0
KPD3 141833Z 09002KT 30/13 A3017 RMK A01 T03030132  RH  035%=      5-min Rain = 0
KPD3 141834Z 19002KT 30/13 A3017 RMK A01 T03030132  RH  035%=      5-min Rain = 0
KPD3 141835Z 05003KT 30/14 A3017 RMK A01 T03040135  RH  036%=      5-min Rain = 0
KPD3 141836Z 05006G11KT 31/14 A3017 RMK A01 T03070135  RH  035%=      5-min Rain = 0
KPD3 141837Z 04006KT 31/13 A3017 RMK A01 T03090134  RH  034%=      5-min Rain = 0
KPD3 141838Z 05009KT 31/14 A3016 RMK A01 T03080136  RH  035%=      5-min Rain = 0
KPD3 141839Z 05008KT 31/14 A3016 RMK A01 T03120135  RH  034%=      5-min Rain = 0
KPD3 141840Z 04008KT 31/13 A3016 RMK A01 T03110134  RH  034%=      5-min Rain = 0
KPD3 141841Z 05007KT 31/14 A3016 RMK A01 T03080135  RH  035%=      5-min Rain = 0
KPD3 141842Z 08006KT 31/14 A3016 RMK A01 T03080135  RH  035%=      5-min Rain = 0
KPD3 141843Z 03006KT 31/14 A3016 RMK A01 T03080137  RH  035%=      5-min Rain = 0
KPD3 141844Z 01006KT 31/14 A3016 RMK A01 T03100137  RH  035%=      5-min Rain = 0
KPD3 141845Z 01005KT 31/14 A3016 RMK A01 T03120136  RH  034%=      5-min Rain = 0
KPD3 141846Z 01008KT 31/14 A3016 RMK A01 T03110135  RH  034%=      5-min Rain = 0
KPD3 141847Z 02005KT 31/13 A3016 RMK A01 T03080133  RH  034%=      5-min Rain = 0
KPD3 141848Z 35002KT 30/13 A3015 RMK A01 T03040134  RH  035%=      5-min Rain = 0
KPD3 141849Z 32002KT 30/14 A3015 RMK A01 T03030135  RH  036%=      5-min Rain = 0
KPD3 141850Z 33002KT 31/14 A3015 RMK A01 T03050137  RH  036%=      5-min Rain = 0
KPD3 141851Z 03003KT 31/14 A3015 RMK A01 T03090139  RH  035%=      5-min Rain = 0
KPD3 141852Z 06004KT 31/14 A3015 RMK A01 T03120139  RH  035%=      5-min Rain = 0
KPD3 141853Z 35002KT 31/14 A3015 RMK A01 T03140139  RH  035%=      5-min Rain = 0
KPD3 141854Z 06006KT 31/14 A3015 RMK A01 T03140138  RH  034%=      5-min Rain = 0
KPD3 141855Z 08004KT 31/14 A3015 RMK A01 T03130137  RH  034%=      5-min Rain = 0
KPD3 141856Z 08008KT 31/14 A3015 RMK A01 T03120139  RH  035%=      5-min Rain = 0
KPD3 141857Z 08008KT 31/14 A3015 RMK A01 T03140139  RH  034%=      5-min Rain = 0
KPD3 141858Z 11008KT 32/14 A3015 RMK A01 T03170138  RH  034%=      5-min Rain = 0
KPD3 141859Z 14006KT 32/14 A3014 RMK A01 T03160137  RH  034%=      5-min Rain = 0
KPD3 141900Z 14004KT 31/14 A3014 RMK A01 T03140137  RH  034%=      5-min Rain = 0
KPD3 141901Z 06007KT 32/14 A3014 RMK A01 T03160138  RH  034%=      5-min Rain = 0
KPD3 141902Z 08010KT 32/14 A3014 RMK A01 T03190137  RH  033%=      5-min Rain = 0
KPD3 141903Z 08009KT 32/13 A3014 RMK A01 T03210134  RH  032%=      5-min Rain = 0
KPD3 141904Z 08011KT 32/13 A3014 RMK A01 T03190133  RH  032%=      5-min Rain = 0
KPD3 141905Z 10010KT 32/14 A3014 RMK A01 T03200135  RH  033%=      5-min Rain = 0
KPD3 141906Z 08006KT 32/14 A3014 RMK A01 T03200136  RH  033%=      5-min Rain = 0
KPD3 141907Z 06006KT 32/14 A3014 RMK A01 T03180138  RH  034%=      5-min Rain = 0
KPD3 141908Z 12007KT 32/14 A3014 RMK A01 T03180138  RH  034%=      5-min Rain = 0
KPD3 141909Z 11007KT 32/14 A3014 RMK A01 T03190137  RH  033%=      5-min Rain = 0
KPD3 141910Z 08006KT 32/14 A3014 RMK A01 T03190140  RH  034%=      5-min Rain = 0
KPD3 141911Z 07004KT 32/14 A3014 RMK A01 T03190138  RH  033%=      5-min Rain = 0
KPD3 141912Z 05003KT 32/14 A3013 RMK A01 T03170137  RH  033%=      5-min Rain = 0
KPD3 141913Z 11008G15KT 32/14 A3013 RMK A01 T03160138  RH  034%=      5-min Rain = 0
KPD3 141914Z 11013KT 32/14 A3013 RMK A01 T03180137  RH  033%=      5-min Rain = 0
KPD3 141915Z 11008KT 32/14 A3013 RMK A01 T03200137  RH  033%=      5-min Rain = 0
KPD3 141916Z 08009KT 32/14 A3014 RMK A01 T03190137  RH  033%=      5-min Rain = 0
KPD3 141917Z 09008KT 32/14 A3014 RMK A01 T03210136  RH  033%=      5-min Rain = 0
KPD3 141918Z 08008KT 32/14 A3014 RMK A01 T03220136  RH  032%=      5-min Rain = 0
KPD3 141919Z 06009KT 33/14 A3014 RMK A01 T03250140  RH  033%=      5-min Rain = 0
KPD3 141920Z 05007KT 32/14 A3015 RMK A01 T03240140  RH  033%=      5-min Rain = 0
KPD3 141921Z 06004KT 32/14 A3015 RMK A01 T03210139  RH  033%=      5-min Rain = 0
KPD3 141922Z 30003KT 32/14 A3015 RMK A01 T03170137  RH  033%=      5-min Rain = 0
KPD3 141923Z 26002KT 31/14 A3015 RMK A01 T03130138  RH  035%=      5-min Rain = 0
KPD3 141924Z 28003KT 31/14 A3015 RMK A01 T03120140  RH  035%=      5-min Rain = 0
KPD3 141925Z 32001KT 32/14 A3015 RMK A01 T03160141  RH  035%=      5-min Rain = 0
KPD3 141926Z 05003KT 32/14 A3015 RMK A01 T03180140  RH  034%=      5-min Rain = 0
KPD3 141927Z 01007KT 32/14 A3014 RMK A01 T03180141  RH  034%=      5-min Rain = 0
KPD3 141928Z 03009KT 32/14 A3014 RMK A01 T03240142  RH  033%=      5-min Rain = 0
KPD3 141929Z 05008KT 33/14 A3014 RMK A01 T03270142  RH  033%=      5-min Rain = 0
KPD3 141930Z 06010KT 33/14 A3014 RMK A01 T03250143  RH  033%=      5-min Rain = 0
KPD3 141931Z 08009KT 33/14 A3015 RMK A01 T03260142  RH  033%=      5-min Rain = 0
KPD3 141932Z 08008KT 33/14 A3014 RMK A01 T03250142  RH  033%=      5-min Rain = 0
KPD3 141933Z 10008KT 33/14 A3015 RMK A01 T03250141  RH  033%=      5-min Rain = 0
KPD3 141934Z 10005KT 33/14 A3015 RMK A01 T03250141  RH  033%=      5-min Rain = 0
KPD3 141935Z 09002KT 32/14 A3015 RMK A01 T03210140  RH  033%=      5-min Rain = 0
KPD3 141936Z 02003KT 32/14 A3015 RMK A01 T03200141  RH  034%=      5-min Rain = 0
KPD3 141937Z 11004KT 32/14 A3015 RMK A01 T03200141  RH  034%=      5-min Rain = 0
KPD3 141938Z 15003KT 32/14 A3014 RMK A01 T03230139  RH  033%=      5-min Rain = 0
KPD3 141939Z 17003KT 32/14 A3014 RMK A01 T03230140  RH  033%=      5-min Rain = 0
KPD3 141940Z 16004KT 32/14 A3014 RMK A01 T03240139  RH  033%=      5-min Rain = 0
KPD3 141941Z 18004KT 32/14 A3014 RMK A01 T03220139  RH  033%=      5-min Rain = 0
KPD3 141942Z 19005KT 32/14 A3014 RMK A01 T03230140  RH  033%=      5-min Rain = 0
KPD3 141943Z 17005KT 33/14 A3014 RMK A01 T03260141  RH  033%=      5-min Rain = 0
KPD3 141944Z 16007KT 33/14 A3014 RMK A01 T03290139  RH  032%=      5-min Rain = 0
KPD3 141945Z 15005KT 33/14 A3014 RMK A01 T03290139  RH  032%=      5-min Rain = 0
KPD3 141946Z 11004KT 33/14 A3014 RMK A01 T03310140  RH  032%=      5-min Rain = 0
KPD3 141947Z 06007KT 33/14 A3014 RMK A01 T03330139  RH  031%=      5-min Rain = 0
KPD3 141948Z 04007KT 33/14 A3014 RMK A01 T03290139  RH  032%=      5-min Rain = 0
KPD3 141949Z 04006KT 33/14 A3014 RMK A01 T03250139  RH  032%=      5-min Rain = 0
KPD3 141950Z 06008KT 33/14 A3014 RMK A01 T03250139  RH  032%=      5-min Rain = 0
KPD3 141951Z 08004KT 32/14 A3014 RMK A01 T03230137  RH  032%=      5-min Rain = 0
KPD3 141952Z 08008KT 32/14 A3014 RMK A01 T03200137  RH  033%=      5-min Rain = 0
KPD3 141953Z 07009KT 32/14 A3014 RMK A01 T03190137  RH  033%=      5-min Rain = 0
KPD3 141954Z 08006KT 32/14 A3014 RMK A01 T03200137  RH  033%=      5-min Rain = 0
KPD3 141955Z 10007KT 32/14 A3013 RMK A01 T03210137  RH  033%=      5-min Rain = 0
KPD3 141956Z 10009KT 32/14 A3013 RMK A01 T03220136  RH  032%=      5-min Rain = 0
KPD3 141957Z 09010KT 32/14 A3013 RMK A01 T03230136  RH  032%=      5-min Rain = 0
KPD3 141958Z 08008KT 32/14 A3013 RMK A01 T03240137  RH  032%=      5-min Rain = 0
KPD3 141959Z 08007KT 32/14 A3013 RMK A01 T03240138  RH  032%=      5-min Rain = 0
KPD3 142000Z 10005KT 33/14 A3013 RMK A01 T03260138  RH  032%=      5-min Rain = 0
KPD3 142001Z 11005KT 33/14 A3013 RMK A01 T03280137  RH  032%=      5-min Rain = 0
KPD3 142002Z 12004KT 33/14 A3013 RMK A01 T03310138  RH  031%=      5-min Rain = 0
KPD3 142003Z 11005KT 33/14 A3013 RMK A01 T03330137  RH  031%=      5-min Rain = 0
KPD3 142004Z 16003KT 33/14 A3013 RMK A01 T03290135  RH  031%=      5-min Rain = 0
KPD3 142005Z 12003KT 33/14 A3013 RMK A01 T03260138  RH  032%=      5-min Rain = 0
KPD3 142006Z 12003KT 33/14 A3013 RMK A01 T03270137  RH  032%=      5-min Rain = 0
KPD3 142007Z 09002KT 33/14 A3013 RMK A01 T03280137  RH  031%=      5-min Rain = 0
KPD3 142008Z 08003KT 33/14 A3013 RMK A01 T03270137  RH  032%=      5-min Rain = 0
KPD3 142009Z 09003KT 33/14 A3013 RMK A01 T03250136  RH  032%=      5-min Rain = 0
KPD3 142010Z 07003G8KT 32/14 A3013 RMK A01 T03240138  RH  033%=      5-min Rain = 0
KPD3 142011Z 05006KT 33/14 A3012 RMK A01 T03270140  RH  032%=      5-min Rain = 0
KPD3 142012Z 05005KT 33/14 A3012 RMK A01 T03310139  RH  031%=      5-min Rain = 0
KPD3 142013Z 04003KT 33/14 A3012 RMK A01 T03290138  RH  032%=      5-min Rain = 0
KPD3 142014Z 09009KT 33/14 A3012 RMK A01 T03270141  RH  032%=      5-min Rain = 0
KPD3 142015Z 10008KT 33/14 A3012 RMK A01 T03310141  RH  032%=      5-min Rain = 0
KPD3 142016Z 13007KT 33/14 A3012 RMK A01 T03310141  RH  032%=      5-min Rain = 0
KPD3 142017Z 14005KT 33/14 A3012 RMK A01 T03320139  RH  031%=      5-min Rain = 0
KPD3 142018Z 17003KT 33/14 A3012 RMK A01 T03300138  RH  031%=      5-min Rain = 0
KPD3 142019Z 18003KT 33/14 A3012 RMK A01 T03300139  RH  031%=      5-min Rain = 0
KPD3 142020Z 16003KT 33/14 A3012 RMK A01 T03310140  RH  031%=      5-min Rain = 0
KPD3 142021Z 07010G16KT 33/14 A3012 RMK A01 T03340142  RH  031%=      5-min Rain = 0
KPD3 142022Z 06010KT 34/14 A3012 RMK A01 T03360141  RH  031%=      5-min Rain = 0
KPD3 142023Z 07009KT 34/14 A3012 RMK A01 T03370142  RH  031%=      5-min Rain = 0
KPD3 142024Z 08007KT 34/14 A3012 RMK A01 T03360142  RH  031%=      5-min Rain = 0
KPD3 142025Z 08007KT 33/14 A3012 RMK A01 T03330142  RH  032%=      5-min Rain = 0
KPD3 142026Z 10008KT 33/14 A3012 RMK A01 T03330140  RH  031%=      5-min Rain = 0
KPD3 142027Z 11005KT 33/14 A3012 RMK A01 T03300140  RH  032%=      5-min Rain = 0
KPD3 142028Z 07010KT 33/14 A3012 RMK A01 T03330142  RH  032%=      5-min Rain = 0
KPD3 142029Z 07011KT 34/14 A3012 RMK A01 T03370142  RH  031%=      5-min Rain = 0
KPD3 142030Z 07007KT 34/14 A3012 RMK A01 T03370142  RH  031%=      5-min Rain = 0
KPD3 142031Z 09005KT 34/14 A3012 RMK A01 T03360141  RH  031%=      5-min Rain = 0
KPD3 142032Z 04006G11KT 33/14 A3012 RMK A01 T03340143  RH  032%=      5-min Rain = 0
KPD3 142033Z 03010KT 33/14 A3012 RMK A01 T03340141  RH  031%=      5-min Rain = 0
KPD3 142034Z 02010KT 33/14 A3012 RMK A01 T03310140  RH  032%=      5-min Rain = 0
KPD3 142035Z 09008KT 33/14 A3012 RMK A01 T03280140  RH  032%=      5-min Rain = 0
KPD3 142036Z 10009KT 33/14 A3012 RMK A01 T03290139  RH  032%=      5-min Rain = 0
KPD3 142037Z 10013KT 33/14 A3012 RMK A01 T03320140  RH  031%=      5-min Rain = 0
KPD3 142038Z 10010KT 33/14 A3012 RMK A01 T03340140  RH  031%=      5-min Rain = 0
KPD3 142039Z 08008KT 33/14 A3012 RMK A01 T03330140  RH  031%=      5-min Rain = 0
KPD3 142040Z 11005KT 33/14 A3011 RMK A01 T03330140  RH  031%=      5-min Rain = 0
KPD3 142041Z 11003KT 33/14 A3011 RMK A01 T03330141  RH  031%=      5-min Rain = 0
KPD3 142042Z 09007KT 34/14 A3011 RMK A01 T03350141  RH  031%=      5-min Rain = 0
KPD3 142043Z 09006KT 34/14 A3011 RMK A01 T03370140  RH  030%=      5-min Rain = 0
KPD3 142044Z 08003KT 33/14 A3011 RMK A01 T03340138  RH  031%=      5-min Rain = 0
KPD3 142045Z 09002KT 33/14 A3011 RMK A01 T03310139  RH  031%=      5-min Rain = 0
KPD3 142046Z 35001KT 33/14 A3011 RMK A01 T03300138  RH  031%=      5-min Rain = 0
KPD3 142047Z 32000KT 33/14 A3011 RMK A01 T03300138  RH  031%=      5-min Rain = 0
KPD3 142048Z 09003KT 33/14 A3011 RMK A01 T03300137  RH  031%=      5-min Rain = 0
KPD3 142049Z 09002KT 33/14 A3011 RMK A01 T03310138  RH  031%=      5-min Rain = 0
KPD3 142050Z 12003KT 33/14 A3011 RMK A01 T03320139  RH  031%=      5-min Rain = 0
KPD3 142051Z 10008KT 33/14 A3011 RMK A01 T03330139  RH  031%=      5-min Rain = 0
KPD3 142052Z 11010KT 34/14 A3011 RMK A01 T03350140  RH  031%=      5-min Rain = 0
KPD3 142053Z 12006KT 34/14 A3011 RMK A01 T03380139  RH  030%=      5-min Rain = 0
KPD3 142054Z 05007KT 34/14 A3011 RMK A01 T03400141  RH  030%=      5-min Rain = 0
KPD3 142055Z 03003KT 34/14 A301 RMK A01 T03390138  RH  030%=      5-min Rain = 0
KPD3 142056Z 02003KT 33/14 A301 RMK A01 T03340137  RH  030%=      5-min Rain = 0
KPD3 142057Z 05005KT 33/14 A301 RMK A01 T03320139  RH  031%=      5-min Rain = 0
KPD3 142058Z 03007KT 33/14 A301 RMK A01 T03330139  RH  031%=      5-min Rain = 0
KPD3 142059Z 04004KT 33/14 A301 RMK A01 T03330139  RH  031%=      5-min Rain = 0
KPD3 142100Z 10006KT 33/14 A301 RMK A01 T03320140  RH  031%=      5-min Rain = 0
KPD3 142101Z 11008KT 33/14 A301 RMK A01 T03340139  RH  031%=      5-min Rain = 0
KPD3 142102Z 08009KT 34/14 A301 RMK A01 T03390140  RH  030%=      5-min Rain = 0
KPD3 142103Z 07009KT 34/14 A301 RMK A01 T03380141  RH  031%=      5-min Rain = 0
KPD3 142104Z 07008KT 34/14 A301 RMK A01 T03360140  RH  031%=      5-min Rain = 0
KPD3 142105Z 07007KT 34/14 A301 RMK A01 T03350139  RH  031%=      5-min Rain = 0
KPD3 142106Z 03005KT 34/14 A301 RMK A01 T03360141  RH  031%=      5-min Rain = 0
KPD3 142107Z 02003KT 34/14 A301 RMK A01 T03360138  RH  030%=      5-min Rain = 0
KPD3 142108Z 35002KT 33/14 A301 RMK A01 T03330138  RH  031%=      5-min Rain = 0
KPD3 142109Z 33002KT 33/14 A301 RMK A01 T03330139  RH  031%=      5-min Rain = 0
KPD3 142110Z 17001KT 33/14 A301 RMK A01 T03330137  RH  031%=      5-min Rain = 0
KPD3 142111Z 19002KT 33/14 A301 RMK A01 T03320136  RH  031%=      5-min Rain = 0
KPD3 142112Z 21001KT 33/14 A301 RMK A01 T03320137  RH  031%=      5-min Rain = 0
KPD3 142113Z 24001KT 33/14 A3009 RMK A01 T03320137  RH  031%=      5-min Rain = 0
KPD3 142114Z 09001KT 33/14 A3009 RMK A01 T03320137  RH  031%=      5-min Rain = 0
KPD3 142115Z 12001KT 33/14 A3009 RMK A01 T03340138  RH  031%=      5-min Rain = 0
KPD3 142116Z 09003KT 34/14 A3009 RMK A01 T03370138  RH  030%=      5-min Rain = 0
KPD3 142117Z 09002KT 34/14 A3009 RMK A01 T03390138  RH  030%=      5-min Rain = 0
KPD3 142118Z 07003G10KT 34/14 A3009 RMK A01 T03390138  RH  030%=      5-min Rain = 0
KPD3 142119Z 06006KT 34/14 A3009 RMK A01 T03390139  RH  030%=      5-min Rain = 0
KPD3 142120Z 09004KT 34/14 A3009 RMK A01 T03390139  RH  030%=      5-min Rain = 0
KPD3 142121Z 15003KT 34/14 A3009 RMK A01 T03390138  RH  030%=      5-min Rain = 0
KPD3 142122Z 11005KT 34/14 A3009 RMK A01 T03380139  RH  030%=      5-min Rain = 0
KPD3 142123Z 08009KT 34/14 A3009 RMK A01 T03400142  RH  030%=      5-min Rain = 0
KPD3 142124Z 08009KT 34/14 A3009 RMK A01 T03430143  RH  030%=      5-min Rain = 0
KPD3 142125Z 07010KT 34/14 A3009 RMK A01 T03430142  RH  030%=      5-min Rain = 0
KPD3 142126Z 09009KT 34/14 A3009 RMK A01 T03410141  RH  030%=      5-min Rain = 0
KPD3 142127Z 07007KT 34/14 A3009 RMK A01 T03400142  RH  030%=      5-min Rain = 0
KPD3 142128Z 06005KT 34/14 A3009 RMK A01 T03400141  RH  030%=      5-min Rain = 0
KPD3 142129Z 07004KT 34/14 A3009 RMK A01 T03390141  RH  030%=      5-min Rain = 0
KPD3 142130Z 11007KT 34/14 A3009 RMK A01 T03400140  RH  030%=      5-min Rain = 0
KPD3 142131Z 11007KT 34/14 A3008 RMK A01 T03420137  RH  029%=      5-min Rain = 0
KPD3 142132Z 13006KT 34/14 A3008 RMK A01 T03410138  RH  029%=      5-min Rain = 0
KPD3 142133Z 12005KT 34/14 A3008 RMK A01 T03390137  RH  030%=      5-min Rain = 0
KPD3 142134Z 13003KT 34/14 A3008 RMK A01 T03370136  RH  030%=      5-min Rain = 0
KPD3 142135Z 10002KT 34/14 A3008 RMK A01 T03370137  RH  030%=      5-min Rain = 0
KPD3 142136Z 11002G7KT 34/14 A3008 RMK A01 T03370140  RH  030%=      5-min Rain = 0
KPD3 142137Z 13009KT 34/14 A3008 RMK A01 T03380139  RH  030%=      5-min Rain = 0
KPD3 142138Z 12004KT 34/14 A3008 RMK A01 T03370138  RH  030%=      5-min Rain = 0
KPD3 142139Z 12003KT 34/14 A3008 RMK A01 T03360139  RH  030%=      5-min Rain = 0
KPD3 142140Z 08001KT 34/14 A3008 RMK A01 T03360139  RH  030%=      5-min Rain = 0
KPD3 142141Z 12003G9KT 34/14 A3008 RMK A01 T03360139  RH  030%=      5-min Rain = 0
KPD3 142142Z 12007KT 34/14 A3008 RMK A01 T03390139  RH  030%=      5-min Rain = 0
KPD3 142143Z 10007KT 34/14 A3008 RMK A01 T03400138  RH  030%=      5-min Rain = 0
KPD3 142144Z 11007KT 34/14 A3008 RMK A01 T03400138  RH  030%=      5-min Rain = 0
KPD3 142145Z 09005KT 34/14 A3008 RMK A01 T03390139  RH  030%=      5-min Rain = 0
KPD3 142146Z 07002KT 34/14 A3008 RMK A01 T03390140  RH  030%=      5-min Rain = 0
KPD3 142147Z 17002KT 34/14 A3008 RMK A01 T03410141  RH  030%=      5-min Rain = 0
KPD3 142148Z 17005KT 34/14 A3008 RMK A01 T03430139  RH  029%=      5-min Rain = 0
KPD3 142149Z 17004KT 34/14 A3008 RMK A01 T03440139  RH  029%=      5-min Rain = 0
KPD3 142150Z 13006KT 34/14 A3008 RMK A01 T03440138  RH  029%=      5-min Rain = 0
KPD3 142151Z 14008KT 34/14 A3008 RMK A01 T03440139  RH  029%=      5-min Rain = 0
KPD3 142152Z 13007KT 34/14 A3008 RMK A01 T03440139  RH  029%=      5-min Rain = 0
KPD3 142153Z 11006KT 34/14 A3008 RMK A01 T03430140  RH  029%=      5-min Rain = 0
KPD3 142154Z 12005KT 34/14 A3008 RMK A01 T03440139  RH  029%=      5-min Rain = 0
KPD3 142155Z 13003KT 34/14 A3008 RMK A01 T03410138  RH  030%=      5-min Rain = 0
KPD3 142156Z 09006KT 34/14 A3008 RMK A01 T03400139  RH  030%=      5-min Rain = 0
KPD3 142157Z 11003KT 34/14 A3008 RMK A01 T03410139  RH  030%=      5-min Rain = 0
KPD3 142158Z 11005KT 34/14 A3008 RMK A01 T03410139  RH  030%=      5-min Rain = 0
KPD3 142159Z 10006KT 34/14 A3008 RMK A01 T03420140  RH  030%=      5-min Rain = 0
KPD3 142200Z 09006KT 34/14 A3008 RMK A01 T03430139  RH  029%=      5-min Rain = 0
KPD3 142201Z 08005KT 34/14 A3008 RMK A01 T03430140  RH  029%=      5-min Rain = 0
KPD3 142202Z 11005KT 34/14 A3008 RMK A01 T03420140  RH  030%=      5-min Rain = 0
KPD3 142203Z 10004KT 34/14 A3008 RMK A01 T03400139  RH  030%=      5-min Rain = 0
KPD3 142204Z 10001KT 34/14 A3008 RMK A01 T03380140  RH  030%=      5-min Rain = 0
KPD3 142205Z 10006G11KT 34/14 A3008 RMK A01 T03380141  RH  031%=      5-min Rain = 0
KPD3 142206Z 11010KT 34/14 A3007 RMK A01 T03410143  RH  030%=      5-min Rain = 0
KPD3 142207Z 08009KT 34/14 A3007 RMK A01 T03440144  RH  030%=      5-min Rain = 0
KPD3 142208Z 08014KT 35/14 A3007 RMK A01 T03470143  RH  029%=      5-min Rain = 0
KPD3 142209Z 07010KT 35/14 A3007 RMK A01 T03480143  RH  029%=      5-min Rain = 0
KPD3 142210Z 09009KT 35/14 A3008 RMK A01 T03470143  RH  029%=      5-min Rain = 0
KPD3 142211Z 08007KT 35/14 A3008 RMK A01 T03460143  RH  030%=      5-min Rain = 0
KPD3 142212Z 08005KT 34/14 A3008 RMK A01 T03420142  RH  030%=      5-min Rain = 0
KPD3 142213Z 06004KT 34/14 A3007 RMK A01 T03420142  RH  030%=      5-min Rain = 0
KPD3 142214Z 08004KT 34/14 A3007 RMK A01 T03420143  RH  030%=      5-min Rain = 0
KPD3 142215Z 09002KT 34/14 A3007 RMK A01 T03410143  RH  030%=      5-min Rain = 0
KPD3 142216Z 16002KT 34/14 A3007 RMK A01 T03400142  RH  030%=      5-min Rain = 0
KPD3 142217Z 27001KT 34/14 A3007 RMK A01 T03400141  RH  030%=      5-min Rain = 0
KPD3 142218Z 04001KT 34/14 A3007 RMK A01 T03400142  RH  031%=      5-min Rain = 0
KPD3 142219Z 36003KT 34/14 A3007 RMK A01 T03410143  RH  030%=      5-min Rain = 0
KPD3 142220Z 03006KT 34/14 A3007 RMK A01 T03420142  RH  030%=      5-min Rain = 0
KPD3 142221Z 03008KT 34/14 A3007 RMK A01 T03420142  RH  030%=      5-min Rain = 0
KPD3 142222Z 08005KT 34/14 A3007 RMK A01 T03430143  RH  030%=      5-min Rain = 0
KPD3 142223Z 08006KT 34/14 A3007 RMK A01 T03440142  RH  030%=      5-min Rain = 0
KPD3 142224Z 07004KT 34/14 A3007 RMK A01 T03440144  RH  030%=      5-min Rain = 0
KPD3 142225Z 03001KT 34/14 A3007 RMK A01 T03430143  RH  030%=      5-min Rain = 0
KPD3 142226Z 04000KT 34/14 A3007 RMK A01 T03420143  RH  030%=      5-min Rain = 0
KPD3 142227Z 35001KT 34/14 A3007 RMK A01 T03420143  RH  030%=      5-min Rain = 0
KPD3 142228Z 02003KT 34/14 A3007 RMK A01 T03420142  RH  030%=      5-min Rain = 0
KPD3 142229Z 05001KT 34/15 A3007 RMK A01 T03420145  RH  031%=      5-min Rain = 0
KPD3 142230Z 08002KT 34/15 A3007 RMK A01 T03430146  RH  031%=      5-min Rain = 0
KPD3 142231Z 08005KT 34/14 A3007 RMK A01 T03440144  RH  030%=      5-min Rain = 0
KPD3 142232Z 09010KT 34/15 A3007 RMK A01 T03440147  RH  031%=      5-min Rain = 0
KPD3 142233Z 10010KT 35/15 A3007 RMK A01 T03460147  RH  030%=      5-min Rain = 0
KPD3 142234Z 12009KT 35/15 A3007 RMK A01 T03470147  RH  030%=      5-min Rain = 0
KPD3 142235Z 12006KT 34/15 A3007 RMK A01 T03440146  RH  031%=      5-min Rain = 0
KPD3 142236Z 12004KT 34/15 A3007 RMK A01 T03410148  RH  031%=      5-min Rain = 0
KPD3 142237Z 13006KT 34/15 A3007 RMK A01 T03420148  RH  031%=      5-min Rain = 0
KPD3 142238Z 14006KT 34/15 A3007 RMK A01 T03430147  RH  031%=      5-min Rain = 0
KPD3 142239Z 11006KT 35/15 A3007 RMK A01 T03450148  RH  031%=      5-min Rain = 0
KPD3 142240Z 10005KT 34/15 A3007 RMK A01 T03440148  RH  031%=      5-min Rain = 0
KPD3 142241Z 11004KT 34/15 A3007 RMK A01 T03420148  RH  031%=      5-min Rain = 0
KPD3 142242Z 09002KT 34/15 A3007 RMK A01 T03410148  RH  031%=      5-min Rain = 0
KPD3 142243Z 08004KT 34/15 A3007 RMK A01 T03420148  RH  031%=      5-min Rain = 0
KPD3 142244Z 12004KT 34/15 A3007 RMK A01 T03430148  RH  031%=      5-min Rain = 0
KPD3 142245Z 13006KT 34/15 A3007 RMK A01 T03430150  RH  032%=      5-min Rain = 0
KPD3 142246Z 13010KT 35/15 A3007 RMK A01 T03450150  RH  031%=      5-min Rain = 0
KPD3 142247Z 13011KT 35/15 A3007 RMK A01 T03460150  RH  031%=      5-min Rain = 0
KPD3 142248Z 14007KT 34/15 A3007 RMK A01 T03440147  RH  031%=      5-min Rain = 0
KPD3 142249Z 12009KT 34/15 A3007 RMK A01 T03430148  RH  031%=      5-min Rain = 0
KPD3 142250Z 08008KT 34/15 A3007 RMK A01 T03430148  RH  031%=      5-min Rain = 0
KPD3 142251Z 12007KT 34/15 A3007 RMK A01 T03420147  RH  031%=      5-min Rain = 0
KPD3 142252Z 13005KT 34/15 A3007 RMK A01 T03400146  RH  031%=      5-min Rain = 0
KPD3 142253Z 12004KT 34/15 A3007 RMK A01 T03400145  RH  031%=      5-min Rain = 0
KPD3 142254Z 11003KT 34/14 A3007 RMK A01 T03400144  RH  031%=      5-min Rain = 0
KPD3 142255Z 16005KT 34/15 A3007 RMK A01 T03390145  RH  031%=      5-min Rain = 0
KPD3 142256Z 12004KT 34/14 A3007 RMK A01 T03400143  RH  031%=      5-min Rain = 0
KPD3 142257Z 09003KT 34/14 A3007 RMK A01 T03410143  RH  030%=      5-min Rain = 0
KPD3 142258Z 03001KT 34/15 A3007 RMK A01 T03410146  RH  031%=      5-min Rain = 0
KPD3 142259Z 11002KT 34/15 A3006 RMK A01 T03410147  RH  031%=      5-min Rain = 0
KPD3 142300Z 14004KT 34/15 A3006 RMK A01 T03410145  RH  031%=      5-min Rain = 0
KPD3 142301Z 16003KT 34/14 A3006 RMK A01 T03420144  RH  031%=      5-min Rain = 0
KPD3 142302Z 15002KT 34/15 A3006 RMK A01 T03420145  RH  031%=      5-min Rain = 0
KPD3 142303Z 12002KT 34/15 A3006 RMK A01 T03430147  RH  031%=      5-min Rain = 0
KPD3 142304Z 04002KT 35/15 A3006 RMK A01 T03450147  RH  031%=      5-min Rain = 0
KPD3 142305Z 09002KT 34/15 A3006 RMK A01 T03440148  RH  031%=      5-min Rain = 0
KPD3 142306Z 07003KT 34/15 A3006 RMK A01 T03430148  RH  031%=      5-min Rain = 0
KPD3 142307Z 07008KT 34/15 A3006 RMK A01 T03440146  RH  031%=      5-min Rain = 0
KPD3 142308Z 05008KT 35/14 A3006 RMK A01 T03450144  RH  030%=      5-min Rain = 0
KPD3 142309Z 06007KT 35/14 A3006 RMK A01 T03450144  RH  030%=      5-min Rain = 0
KPD3 142310Z 06007KT 34/15 A3006 RMK A01 T03440146  RH  030%=      5-min Rain = 0
KPD3 142311Z 06004KT 34/15 A3006 RMK A01 T03430145  RH  030%=      5-min Rain = 0
KPD3 142312Z 06004KT 34/14 A3006 RMK A01 T03430144  RH  030%=      5-min Rain = 0
KPD3 142313Z 08003KT 34/14 A3006 RMK A01 T03420144  RH  031%=      5-min Rain = 0
KPD3 142314Z 13007KT 34/15 A3006 RMK A01 T03400148  RH  031%=      5-min Rain = 0
KPD3 142315Z 12010KT 34/15 A3006 RMK A01 T03410147  RH  031%=      5-min Rain = 0
KPD3 142316Z 13009KT 34/15 A3006 RMK A01 T03420147  RH  031%=      5-min Rain = 0
KPD3 142317Z 15010KT 35/15 A3006 RMK A01 T03460149  RH  031%=      5-min Rain = 0
KPD3 142318Z 14010KT 35/15 A3006 RMK A01 T03460148  RH  031%=      5-min Rain = 0
KPD3 142319Z 15005G11KT 34/15 A3006 RMK A01 T03430146  RH  031%=      5-min Rain = 0
KPD3 142320Z 14008KT 34/15 A3006 RMK A01 T03430151  RH  032%=      5-min Rain = 0
KPD3 142321Z 15009KT 34/15 A3006 RMK A01 T03440151  RH  032%=      5-min Rain = 0
KPD3 142322Z 16006KT 34/15 A3006 RMK A01 T03440151  RH  032%=      5-min Rain = 0
KPD3 142323Z 15010KT 34/15 A3006 RMK A01 T03440151  RH  032%=      5-min Rain = 0
KPD3 142324Z 15010KT 35/15 A3006 RMK A01 T03450151  RH  031%=      5-min Rain = 0
KPD3 142325Z 16008KT 35/15 A3006 RMK A01 T03450151  RH  031%=      5-min Rain = 0
KPD3 142326Z 17006KT 34/15 A3006 RMK A01 T03440150  RH  031%=      5-min Rain = 0
KPD3 142327Z 18004KT 34/15 A3006 RMK A01 T03430149  RH  031%=      5-min Rain = 0
KPD3 142328Z 17003KT 34/15 A3006 RMK A01 T03420151  RH  032%=      5-min Rain = 0
KPD3 142329Z 14005KT 34/15 A3006 RMK A01 T03440151  RH  031%=      5-min Rain = 0
KPD3 142330Z 14006KT 35/15 A3006 RMK A01 T03450150  RH  031%=      5-min Rain = 0
KPD3 142331Z 15003KT 34/15 A3006 RMK A01 T03440149  RH  031%=      5-min Rain = 0
KPD3 142332Z 16003KT 34/15 A3006 RMK A01 T03440150  RH  031%=      5-min Rain = 0
KPD3 142333Z 17005KT 34/15 A3006 RMK A01 T03440149  RH  031%=      5-min Rain = 0
KPD3 142334Z 18003KT 35/15 A3006 RMK A01 T03450149  RH  031%=      5-min Rain = 0
KPD3 142335Z 18003KT 34/15 A3006 RMK A01 T03430150  RH  031%=      5-min Rain = 0
KPD3 142336Z 14003KT 34/15 A3006 RMK A01 T03420150  RH  032%=      5-min Rain = 0
KPD3 142337Z 16005KT 34/15 A3006 RMK A01 T03430151  RH  032%=      5-min Rain = 0
KPD3 142338Z 15004KT 34/15 A3006 RMK A01 T03430150  RH  031%=      5-min Rain = 0
KPD3 142339Z 15005KT 34/15 A3006 RMK A01 T03430150  RH  031%=      5-min Rain = 0
KPD3 142340Z 10009KT 35/15 A3006 RMK A01 T03450150  RH  031%=      5-min Rain = 0
KPD3 142341Z 10009KT 35/15 A3006 RMK A01 T03450150  RH  031%=      5-min Rain = 0
KPD3 142342Z 11008KT 34/15 A3006 RMK A01 T03420149  RH  031%=      5-min Rain = 0
KPD3 142343Z 10007KT 34/15 A3006 RMK A01 T03410149  RH  032%=      5-min Rain = 0
KPD3 142344Z 10005KT 34/15 A3006 RMK A01 T03400149  RH  032%=      5-min Rain = 0
KPD3 142345Z 08004KT 34/15 A3006 RMK A01 T03390149  RH  032%=      5-min Rain = 0
KPD3 142346Z 07002KT 34/15 A3006 RMK A01 T03400150  RH  032%=      5-min Rain = 0
KPD3 142347Z 35001KT 34/15 A3006 RMK A01 T03410150  RH  032%=      5-min Rain = 0
KPD3 142348Z 32001KT 34/15 A3006 RMK A01 T03400150  RH  032%=      5-min Rain = 0
KPD3 142349Z 01002KT 34/15 A3006 RMK A01 T03400149  RH  032%=      5-min Rain = 0
KPD3 142350Z 02001KT 34/15 A3006 RMK A01 T03410150  RH  032%=      5-min Rain = 0
KPD3 142351Z 03002KT 34/15 A3006 RMK A01 T03420151  RH  032%=      5-min Rain = 0
KPD3 142352Z 06001KT 34/15 A3006 RMK A01 T03430151  RH  032%=      5-min Rain = 0
KPD3 142353Z 17003KT 34/15 A3006 RMK A01 T03440150  RH  031%=      5-min Rain = 0
KPD3 142354Z 15005KT 34/15 A3006 RMK A01 T03440149  RH  031%=      5-min Rain = 0
KPD3 142355Z 16005KT 35/15 A3006 RMK A01 T03450149  RH  031%=      5-min Rain = 0
KPD3 142356Z 15007KT 35/15 A3006 RMK A01 T03450149  RH  031%=      5-min Rain = 0
KPD3 142357Z 12007KT 34/15 A3006 RMK A01 T03430148  RH  031%=      5-min Rain = 0
KPD3 142358Z 12007KT 34/15 A3006 RMK A01 T03420149  RH  031%=      5-min Rain = 0
KPD3 142359Z 12007KT 34/15 A3006 RMK A01 T03410149  RH  031%=      5-min Rain = 0
KPD3 150000Z 13009KT 34/15 A3006 RMK A01 T03410148  RH  031%=      5-min Rain = 0
KPD3 150001Z 13007KT 34/15 A3006 RMK A01 T03400148  RH  032%=      5-min Rain = 0
KPD3 150002Z 13008KT 34/15 A3006 RMK A01 T03400149  RH  032%=      5-min Rain = 0
KPD3 150003Z 14007KT 34/15 A3006 RMK A01 T03390149  RH  032%=      5-min Rain = 0
KPD3 150004Z 15007KT 34/15 A3006 RMK A01 T03380150  RH  032%=      5-min Rain = 0
KPD3 150005Z 15006KT 34/15 A3006 RMK A01 T03380150  RH  032%=      5-min Rain = 0
KPD3 150006Z 14008KT 34/15 A3006 RMK A01 T03380150  RH  032%=      5-min Rain = 0
KPD3 150007Z 15008KT 34/15 A3006 RMK A01 T03380150  RH  032%=      5-min Rain = 0
KPD3 150008Z 13011KT 34/15 A3006 RMK A01 T03380150  RH  032%=      5-min Rain = 0
KPD3 150009Z 13012KT 34/15 A3006 RMK A01 T03380150  RH  032%=      5-min Rain = 0
KPD3 150010Z 13010KT 34/15 A3006 RMK A01 T03370150  RH  033%=      5-min Rain = 0
KPD3 150011Z 13009KT 34/15 A3006 RMK A01 T03360150  RH  033%=      5-min Rain = 0
KPD3 150012Z 12008KT 34/15 A3006 RMK A01 T03350150  RH  033%=      5-min Rain = 0
KPD3 150013Z 12009KT 34/15 A3006 RMK A01 T03350150  RH  033%=      5-min Rain = 0
KPD3 150014Z 12008KT 34/15 A3006 RMK A01 T03350150  RH  033%=      5-min Rain = 0
KPD3 150015Z 12006KT 33/15 A3006 RMK A01 T03340150  RH  033%=      5-min Rain = 0
KPD3 150016Z 11005KT 34/15 A3006 RMK A01 T03350151  RH  033%=      5-min Rain = 0
KPD3 150017Z 12007KT 34/15 A3006 RMK A01 T03360151  RH  033%=      5-min Rain = 0
KPD3 150018Z 11010KT 34/15 A3006 RMK A01 T03360151  RH  033%=      5-min Rain = 0
KPD3 150019Z 12008KT 34/15 A3006 RMK A01 T03360151  RH  033%=      5-min Rain = 0
KPD3 150020Z 14008KT 34/15 A3006 RMK A01 T03360151  RH  033%=      5-min Rain = 0
KPD3 150021Z 15011KT 34/15 A3006 RMK A01 T03360151  RH  033%=      5-min Rain = 0
KPD3 150022Z 14012KT 34/15 A3006 RMK A01 T03360152  RH  033%=      5-min Rain = 0
KPD3 150023Z 14011KT 34/15 A3006 RMK A01 T03350153  RH  033%=      5-min Rain = 0
KPD3 150024Z 13009KT 34/15 A3006 RMK A01 T03350153  RH  034%=      5-min Rain = 0
KPD3 150025Z 12010KT 34/15 A3006 RMK A01 T03350153  RH  034%=      5-min Rain = 0
KPD3 150026Z 13008KT 33/15 A3006 RMK A01 T03340153  RH  034%=      5-min Rain = 0
KPD3 150027Z 14009KT 33/15 A3006 RMK A01 T03340153  RH  034%=      5-min Rain = 0
KPD3 150028Z 14011KT 33/15 A3006 RMK A01 T03340154  RH  034%=      5-min Rain = 0
KPD3 150029Z 13010KT 33/15 A3006 RMK A01 T03340154  RH  034%=      5-min Rain = 0
KPD3 150030Z 13011KT 33/15 A3006 RMK A01 T03330154  RH  034%=      5-min Rain = 0
KPD3 150031Z 12011KT 33/15 A3006 RMK A01 T03320154  RH  034%=      5-min Rain = 0
KPD3 150032Z 12011KT 33/15 A3006 RMK A01 T03310154  RH  035%=      5-min Rain = 0
KPD3 150033Z 12011KT 33/15 A3006 RMK A01 T03300154  RH  035%=      5-min Rain = 0
KPD3 150034Z 13010KT 33/15 A3006 RMK A01 T03290154  RH  035%=      5-min Rain = 0
KPD3 150035Z 14009KT 33/16 A3006 RMK A01 T03290155  RH  035%=      5-min Rain = 0
KPD3 150036Z 13009KT 33/16 A3006 RMK A01 T03290155  RH  035%=      5-min Rain = 0
KPD3 150037Z 13010KT 33/16 A3006 RMK A01 T03290155  RH  035%=      5-min Rain = 0
KPD3 150038Z 13008KT 33/16 A3006 RMK A01 T03290155  RH  035%=      5-min Rain = 0
KPD3 150039Z 13008KT 33/16 A3006 RMK A01 T03290155  RH  035%=      5-min Rain = 0
KPD3 150040Z 13007KT 33/16 A3006 RMK A01 T03290156  RH  035%=      5-min Rain = 0
KPD3 150041Z 13006KT 33/16 A3006 RMK A01 T03290156  RH  035%=      5-min Rain = 0
KPD3 150042Z 13006KT 33/16 A3007 RMK A01 T03290156  RH  035%=      5-min Rain = 0
KPD3 150043Z 13009KT 33/16 A3007 RMK A01 T03290156  RH  035%=      5-min Rain = 0
KPD3 150044Z 13009KT 33/16 A3007 RMK A01 T03290157  RH  036%=      5-min Rain = 0
KPD3 150045Z 14008KT 33/16 A3007 RMK A01 T03280157  RH  036%=      5-min Rain = 0
KPD3 150046Z 14010KT 33/16 A3007 RMK A01 T03280157  RH  036%=      5-min Rain = 0
KPD3 150047Z 14010KT 33/16 A3007 RMK A01 T03270157  RH  036%=      5-min Rain = 0
KPD3 150048Z 13009KT 33/16 A3007 RMK A01 T03260157  RH  036%=      5-min Rain = 0
KPD3 150049Z 13011KT 33/16 A3007 RMK A01 T03260157  RH  036%=      5-min Rain = 0
KPD3 150050Z 14011KT 33/16 A3007 RMK A01 T03250158  RH  037%=      5-min Rain = 0
KPD3 150051Z 14011KT 32/16 A3007 RMK A01 T03240158  RH  037%=      5-min Rain = 0
KPD3 150052Z 14012KT 32/16 A3007 RMK A01 T03240158  RH  037%=      5-min Rain = 0
KPD3 150053Z 13008KT 32/16 A3007 RMK A01 T03230158  RH  037%=      5-min Rain = 0
KPD3 150054Z 14007KT 32/16 A3007 RMK A01 T03220158  RH  037%=      5-min Rain = 0
KPD3 150055Z 14008KT 32/16 A3007 RMK A01 T03220158  RH  037%=      5-min Rain = 0
KPD3 150056Z 13009KT 32/16 A3007 RMK A01 T03210158  RH  037%=      5-min Rain = 0
KPD3 150057Z 13009KT 32/16 A3007 RMK A01 T03210158  RH  037%=      5-min Rain = 0
KPD3 150058Z 13009KT 32/16 A3007 RMK A01 T03210158  RH  037%=      5-min Rain = 0
KPD3 150059Z 14008KT 32/16 A3007 RMK A01 T03200158  RH  038%=      5-min Rain = 0
KPD3 150100Z 14009KT 32/16 A3008 RMK A01 T03200158  RH  038%=      5-min Rain = 0
KPD3 150101Z 14007KT 32/16 A3008 RMK A01 T03190158  RH  038%=      5-min Rain = 0
KPD3 150102Z 14008KT 32/16 A3008 RMK A01 T03180158  RH  038%=      5-min Rain = 0
KPD3 150103Z 14009KT 32/16 A3008 RMK A01 T03170158  RH  038%=      5-min Rain = 0
KPD3 150104Z 14008KT 32/16 A3008 RMK A01 T03160158  RH  038%=      5-min Rain = 0
KPD3 150105Z 14007KT 32/16 A3008 RMK A01 T03160158  RH  039%=      5-min Rain = 0
KPD3 150106Z 14007KT 32/16 A3008 RMK A01 T03150158  RH  039%=      5-min Rain = 0
KPD3 150107Z 14007KT 31/16 A3008 RMK A01 T03140158  RH  039%=      5-min Rain = 0
KPD3 150108Z 15008KT 31/16 A3008 RMK A01 T03140158  RH  039%=      5-min Rain = 0
KPD3 150109Z 14007KT 31/16 A3008 RMK A01 T03130158  RH  039%=      5-min Rain = 0
KPD3 150110Z 13009KT 31/16 A3008 RMK A01 T03130157  RH  039%=      5-min Rain = 0
KPD3 150111Z 13008KT 31/16 A3008 RMK A01 T03130156  RH  039%=      5-min Rain = 0
KPD3 150112Z 14006KT 31/16 A3008 RMK A01 T03120156  RH  039%=      5-min Rain = 0
KPD3 150113Z 15006KT 31/16 A3008 RMK A01 T03120156  RH  039%=      5-min Rain = 0
KPD3 150114Z 15006KT 31/16 A3008 RMK A01 T03100156  RH  039%=      5-min Rain = 0
KPD3 150115Z 14007KT 31/16 A3008 RMK A01 T03090156  RH  040%=      5-min Rain = 0
KPD3 150116Z 14007KT 31/16 A3008 RMK A01 T03080156  RH  040%=      5-min Rain = 0
KPD3 150117Z 13008KT 31/16 A3008 RMK A01 T03080156  RH  040%=      5-min Rain = 0
KPD3 150118Z 13007KT 31/16 A3008 RMK A01 T03080155  RH  040%=      5-min Rain = 0
KPD3 150119Z 13008KT 31/15 A3008 RMK A01 T03070154  RH  040%=      5-min Rain = 0
KPD3 150120Z 13008KT 31/15 A3008 RMK A01 T03070154  RH  039%=      5-min Rain = 0
KPD3 150121Z 12007KT 31/15 A3008 RMK A01 T03070153  RH  039%=      5-min Rain = 0
KPD3 150122Z 12007KT 31/15 A3008 RMK A01 T03070153  RH  039%=      5-min Rain = 0
KPD3 150123Z 12006KT 31/15 A3008 RMK A01 T03070153  RH  039%=      5-min Rain = 0
KPD3 150124Z 11006KT 31/15 A3008 RMK A01 T03060152  RH  039%=      5-min Rain = 0
KPD3 150125Z 12006KT 31/15 A3008 RMK A01 T03050152  RH  040%=      5-min Rain = 0
KPD3 150126Z 12007KT 30/15 A3008 RMK A01 T03030152  RH  040%=      5-min Rain = 0
KPD3 150127Z 11006KT 30/15 A3008 RMK A01 T03020152  RH  040%=      5-min Rain = 0
KPD3 150128Z 12006KT 30/15 A3008 RMK A01 T03010151  RH  040%=      5-min Rain = 0
KPD3 150129Z 12006KT 30/15 A3008 RMK A01 T02990151  RH  041%=      5-min Rain = 0
KPD3 150130Z 12006KT 30/15 A3008 RMK A01 T02980151  RH  041%=      5-min Rain = 0
KPD3 150131Z 12006KT 30/15 A3009 RMK A01 T02980151  RH  041%=      5-min Rain = 0
KPD3 150132Z 13005KT 30/15 A3009 RMK A01 T02970151  RH  041%=      5-min Rain = 0
KPD3 150133Z 13005KT 30/15 A3009 RMK A01 T02960150  RH  041%=      5-min Rain = 0
KPD3 150134Z 13004KT 29/15 A3009 RMK A01 T02940150  RH  041%=      5-min Rain = 0
KPD3 150135Z 12004KT 29/15 A3009 RMK A01 T02930150  RH  042%=      5-min Rain = 0
KPD3 150136Z 10004KT 29/15 A3009 RMK A01 T02910149  RH  042%=      5-min Rain = 0
KPD3 150137Z 12005KT 29/15 A3009 RMK A01 T02890149  RH  043%=      5-min Rain = 0
KPD3 150138Z 12005KT 29/15 A3009 RMK A01 T02880149  RH  043%=      5-min Rain = 0
KPD3 150139Z 12006KT 29/15 A3009 RMK A01 T02870149  RH  043%=      5-min Rain = 0
KPD3 150140Z 12006KT 29/15 A3009 RMK A01 T02870149  RH  043%=      5-min Rain = 0
KPD3 150141Z 12006KT 29/15 A3009 RMK A01 T02870149  RH  043%=      5-min Rain = 0
KPD3 150142Z 12006KT 29/15 A3009 RMK A01 T02870149  RH  043%=      5-min Rain = 0
KPD3 150143Z 12005KT 29/15 A3009 RMK A01 T02860148  RH  043%=      5-min Rain = 0
KPD3 150144Z 12005KT 29/15 A3009 RMK A01 T02850148  RH  043%=      5-min Rain = 0
KPD3 150145Z 12005KT 29/15 A3009 RMK A01 T02850148  RH  043%=      5-min Rain = 0
KPD3 150146Z 12005KT 28/15 A3009 RMK A01 T02840148  RH  043%=      5-min Rain = 0
KPD3 150147Z 12005KT 28/15 A3009 RMK A01 T02820148  RH  044%=      5-min Rain = 0
KPD3 150148Z 12004KT 28/15 A3009 RMK A01 T02810148  RH  044%=      5-min Rain = 0
KPD3 150149Z 12004KT 28/15 A3009 RMK A01 T02800147  RH  044%=      5-min Rain = 0
KPD3 150150Z 12004KT 28/15 A3009 RMK A01 T02790147  RH  044%=      5-min Rain = 0
KPD3 150151Z 12004KT 28/15 A3009 RMK A01 T02790147  RH  045%=      5-min Rain = 0
KPD3 150152Z 12005KT 28/15 A3009 RMK A01 T02780147  RH  045%=      5-min Rain = 0
KPD3 150153Z 12005KT 28/15 A3009 RMK A01 T02770147  RH  045%=      5-min Rain = 0
KPD3 150154Z 11005KT 28/15 A3009 RMK A01 T02760147  RH  045%=      5-min Rain = 0
KPD3 150155Z 11006KT 28/15 A3009 RMK A01 T02760146  RH  045%=      5-min Rain = 0
KPD3 150156Z 11006KT 28/15 A3009 RMK A01 T02760146  RH  045%=      5-min Rain = 0
KPD3 150157Z 11006KT 28/15 A3009 RMK A01 T02750145  RH  045%=      5-min Rain = 0
KPD3 150158Z 11006KT 28/14 A3009 RMK A01 T02750144  RH  045%=      5-min Rain = 0
KPD3 150159Z 11006KT 27/14 A3009 RMK A01 T02740143  RH  045%=      5-min Rain = 0
KPD3 150200Z 11006KT 27/14 A301 RMK A01 T02740143  RH  045%=      5-min Rain = 0
KPD3 150201Z 11006KT 27/14 A301 RMK A01 T02730142  RH  045%=      5-min Rain = 0
KPD3 150202Z 11006KT 27/14 A301 RMK A01 T02720141  RH  045%=      5-min Rain = 0
KPD3 150203Z 10006KT 27/14 A301 RMK A01 T02720141  RH  045%=      5-min Rain = 0
KPD3 150204Z 10006KT 27/14 A301 RMK A01 T02720140  RH  044%=      5-min Rain = 0
KPD3 150205Z 10005KT 27/14 A301 RMK A01 T02710140  RH  044%=      5-min Rain = 0
KPD3 150206Z 10006KT 27/14 A301 RMK A01 T02700139  RH  044%=      5-min Rain = 0
KPD3 150207Z 10006KT 27/14 A301 RMK A01 T02700139  RH  044%=      5-min Rain = 0
KPD3 150208Z 11005KT 27/14 A301 RMK A01 T02700138  RH  044%=      5-min Rain = 0
KPD3 150209Z 10006KT 27/14 A301 RMK A01 T02690138  RH  044%=      5-min Rain = 0
KPD3 150210Z 10006KT 27/14 A301 RMK A01 T02690137  RH  044%=      5-min Rain = 0
KPD3 150211Z 10006KT 27/14 A301 RMK A01 T02680137  RH  044%=      5-min Rain = 0
KPD3 150212Z 10006KT 27/14 A301 RMK A01 T02680136  RH  044%=      5-min Rain = 0
KPD3 150213Z 10007KT 27/14 A301 RMK A01 T02680136  RH  044%=      5-min Rain = 0
KPD3 150214Z 10007KT 27/14 A301 RMK A01 T02680136  RH  044%=      5-min Rain = 0
KPD3 150215Z 10006KT 27/14 A301 RMK A01 T02680136  RH  044%=      5-min Rain = 0
KPD3 150216Z 10006KT 27/14 A301 RMK A01 T02680135  RH  044%=      5-min Rain = 0
KPD3 150217Z 10006KT 27/14 A301 RMK A01 T02680135  RH  044%=      5-min Rain = 0
KPD3 150218Z 10006KT 27/13 A301 RMK A01 T02670134  RH  044%=      5-min Rain = 0
KPD3 150219Z 10006KT 27/13 A301 RMK A01 T02660133  RH  044%=      5-min Rain = 0
KPD3 150220Z 10006KT 27/13 A301 RMK A01 T02660133  RH  044%=      5-min Rain = 0
KPD3 150221Z 10006KT 27/13 A301 RMK A01 T02650133  RH  044%=      5-min Rain = 0
KPD3 150222Z 10006KT 26/13 A301 RMK A01 T02640132  RH  044%=      5-min Rain = 0
KPD3 150223Z 10006KT 26/13 A301 RMK A01 T02640132  RH  044%=      5-min Rain = 0
KPD3 150224Z 10006KT 26/13 A301 RMK A01 T02640132  RH  044%=      5-min Rain = 0
KPD3 150225Z 10006KT 26/13 A301 RMK A01 T02630132  RH  044%=      5-min Rain = 0
KPD3 150226Z 10007KT 26/13 A301 RMK A01 T02620132  RH  045%=      5-min Rain = 0
KPD3 150227Z 10007KT 26/13 A301 RMK A01 T02610132  RH  045%=      5-min Rain = 0
KPD3 150228Z 10007KT 26/13 A301 RMK A01 T02610131  RH  045%=      5-min Rain = 0
KPD3 150229Z 11006KT 26/13 A301 RMK A01 T02610131  RH  045%=      5-min Rain = 0
KPD3 150230Z 11006KT 26/13 A301 RMK A01 T02600131  RH  045%=      5-min Rain = 0
KPD3 150231Z 11006KT 26/13 A301 RMK A01 T02600132  RH  045%=      5-min Rain = 0
KPD3 150232Z 10007KT 26/13 A301 RMK A01 T02590132  RH  045%=      5-min Rain = 0
KPD3 150233Z 10007KT 26/13 A301 RMK A01 T02590132  RH  045%=      5-min Rain = 0
KPD3 150234Z 10006KT 26/13 A301 RMK A01 T02590132  RH  045%=      5-min Rain = 0
KPD3 150235Z 10007KT 26/13 A301 RMK A01 T02590132  RH  045%=      5-min Rain = 0
KPD3 150236Z 10007KT 26/13 A301 RMK A01 T02590132  RH  045%=      5-min Rain = 0
KPD3 150237Z 10006KT 26/13 A301 RMK A01 T02590132  RH  045%=      5-min Rain = 0
KPD3 150238Z 10006KT 26/13 A301 RMK A01 T02590132  RH  045%=      5-min Rain = 0
KPD3 150239Z 10007KT 26/13 A301 RMK A01 T02600133  RH  045%=      5-min Rain = 0
KPD3 150240Z 10007KT 26/13 A301 RMK A01 T02600133  RH  045%=      5-min Rain = 0
KPD3 150241Z 10006KT 26/13 A3011 RMK A01 T02600133  RH  045%=      5-min Rain = 0
KPD3 150242Z 10006KT 26/13 A3011 RMK A01 T02600133  RH  045%=      5-min Rain = 0
KPD3 150243Z 10006KT 26/13 A3011 RMK A01 T02610133  RH  045%=      5-min Rain = 0
KPD3 150244Z 10006KT 26/13 A3011 RMK A01 T02600133  RH  045%=      5-min Rain = 0
KPD3 150245Z 10006KT 26/13 A3011 RMK A01 T02610133  RH  045%=      5-min Rain = 0
KPD3 150246Z 10006KT 26/13 A3011 RMK A01 T02600133  RH  045%=      5-min Rain = 0
KPD3 150247Z 10006KT 26/13 A3011 RMK A01 T02600133  RH  045%=      5-min Rain = 0
KPD3 150248Z 10006KT 26/13 A3011 RMK A01 T02600133  RH  045%=      5-min Rain = 0
KPD3 150249Z 10005KT 26/13 A3011 RMK A01 T02600133  RH  045%=      5-min Rain = 0
KPD3 150250Z 10006KT 26/13 A3011 RMK A01 T02590133  RH  046%=      5-min Rain = 0
KPD3 150251Z 11006KT 26/13 A3011 RMK A01 T02590133  RH  046%=      5-min Rain = 0
KPD3 150252Z 11006KT 26/13 A3011 RMK A01 T02590134  RH  046%=      5-min Rain = 0
KPD3 150253Z 11007KT 26/13 A3011 RMK A01 T02590134  RH  046%=      5-min Rain = 0
KPD3 150254Z 11006KT 26/14 A3012 RMK A01 T02600135  RH  046%=      5-min Rain = 0
KPD3 150255Z 11006KT 26/14 A3012 RMK A01 T02620136  RH  046%=      5-min Rain = 0
KPD3 150256Z 11006KT 26/14 A3012 RMK A01 T02630136  RH  045%=      5-min Rain = 0
KPD3 150257Z 12006KT 26/14 A3012 RMK A01 T02640137  RH  045%=      5-min Rain = 0
KPD3 150258Z 12006KT 27/14 A3012 RMK A01 T02650137  RH  045%=      5-min Rain = 0
KPD3 150259Z 11006KT 27/14 A3012 RMK A01 T02650137  RH  045%=      5-min Rain = 0
KPD3 150300Z 11006KT 27/14 A3012 RMK A01 T02650137  RH  045%=      5-min Rain = 0
KPD3 150301Z 11006KT 27/14 A3012 RMK A01 T02650138  RH  045%=      5-min Rain = 0
KPD3 150302Z 12006KT 26/14 A3012 RMK A01 T02640138  RH  046%=      5-min Rain = 0
KPD3 150303Z 11006KT 27/14 A3012 RMK A01 T02650139  RH  046%=      5-min Rain = 0
KPD3 150304Z 11006KT 27/14 A3012 RMK A01 T02650140  RH  046%=      5-min Rain = 0
KPD3 150305Z 11006KT 27/14 A3012 RMK A01 T02650140  RH  046%=      5-min Rain = 0
KPD3 150306Z 12006KT 27/14 A3012 RMK A01 T02650141  RH  046%=      5-min Rain = 0
KPD3 150307Z 12005KT 26/14 A3012 RMK A01 T02640141  RH  047%=      5-min Rain = 0
KPD3 150308Z 12005KT 26/14 A3012 RMK A01 T02630141  RH  047%=      5-min Rain = 0
KPD3 150309Z 12006KT 26/14 A3012 RMK A01 T02620141  RH  047%=      5-min Rain = 0
KPD3 150310Z 12006KT 26/14 A3012 RMK A01 T02610140  RH  047%=      5-min Rain = 0
KPD3 150311Z 12005KT 26/14 A3012 RMK A01 T02600140  RH  048%=      5-min Rain = 0
KPD3 150312Z 12005KT 26/14 A3012 RMK A01 T02600141  RH  048%=      5-min Rain = 0
KPD3 150313Z 12005KT 26/14 A3012 RMK A01 T02590141  RH  048%=      5-min Rain = 0
KPD3 150314Z 12005KT 26/14 A3012 RMK A01 T02580141  RH  048%=      5-min Rain = 0
KPD3 150315Z 12005KT 26/14 A3012 RMK A01 T02580141  RH  048%=      5-min Rain = 0
KPD3 150316Z 12006KT 26/14 A3012 RMK A01 T02580141  RH  049%=      5-min Rain = 0
KPD3 150317Z 11006KT 26/14 A3012 RMK A01 T02580142  RH  049%=      5-min Rain = 0
KPD3 150318Z 11006KT 26/14 A3012 RMK A01 T02580142  RH  049%=      5-min Rain = 0
KPD3 150319Z 12006KT 26/14 A3012 RMK A01 T02580143  RH  049%=      5-min Rain = 0
KPD3 150320Z 12005KT 26/14 A3012 RMK A01 T02580143  RH  049%=      5-min Rain = 0
KPD3 150321Z 12006KT 26/14 A3012 RMK A01 T02580144  RH  049%=      5-min Rain = 0
KPD3 150322Z 12006KT 26/14 A3012 RMK A01 T02580144  RH  050%=      5-min Rain = 0
KPD3 150323Z 12006KT 26/15 A3012 RMK A01 T02580145  RH  050%=      5-min Rain = 0
KPD3 150324Z 13006KT 26/15 A3012 RMK A01 T02580145  RH  050%=      5-min Rain = 0
KPD3 150325Z 13006KT 26/15 A3012 RMK A01 T02580146  RH  050%=      5-min Rain = 0
KPD3 150326Z 13006KT 26/15 A3012 RMK A01 T02580147  RH  050%=      5-min Rain = 0
KPD3 150327Z 13006KT 26/15 A3013 RMK A01 T02580148  RH  051%=      5-min Rain = 0
KPD3 150328Z 13005KT 26/15 A3013 RMK A01 T02580148  RH  051%=      5-min Rain = 0
KPD3 150329Z 13005KT 26/15 A3013 RMK A01 T02580149  RH  051%=      5-min Rain = 0
KPD3 150330Z 13005KT 26/15 A3013 RMK A01 T02570149  RH  051%=      5-min Rain = 0
KPD3 150331Z 13005KT 26/15 A3013 RMK A01 T02570149  RH  051%=      5-min Rain = 0
KPD3 150332Z 12005KT 26/15 A3013 RMK A01 T02570150  RH  052%=      5-min Rain = 0
KPD3 150333Z 12005KT 26/15 A3013 RMK A01 T02560149  RH  052%=      5-min Rain = 0
KPD3 150334Z 12005KT 26/15 A3013 RMK A01 T02560150  RH  052%=      5-min Rain = 0
KPD3 150335Z 11005KT 26/15 A3013 RMK A01 T02560150  RH  052%=      5-min Rain = 0
KPD3 150336Z 11004KT 26/15 A3013 RMK A01 T02560151  RH  052%=      5-min Rain = 0
KPD3 150337Z 10004KT 26/15 A3013 RMK A01 T02560151  RH  052%=      5-min Rain = 0
KPD3 150338Z 10004KT 26/15 A3013 RMK A01 T02550150  RH  052%=      5-min Rain = 0
KPD3 150339Z 10004KT 26/15 A3013 RMK A01 T02550150  RH  052%=      5-min Rain = 0
KPD3 150340Z 11004KT 26/15 A3013 RMK A01 T02550150  RH  052%=      5-min Rain = 0
KPD3 150341Z 11004KT 26/15 A3013 RMK A01 T02560150  RH  052%=      5-min Rain = 0
KPD3 150342Z 12005KT 26/15 A3013 RMK A01 T02560150  RH  052%=      5-min Rain = 0
KPD3 150343Z 12004KT 26/15 A3013 RMK A01 T02560150  RH  052%=      5-min Rain = 0
KPD3 150344Z 12004KT 26/15 A3013 RMK A01 T02560150  RH  052%=      5-min Rain = 0
KPD3 150345Z 12004KT 26/15 A3014 RMK A01 T02560150  RH  052%=      5-min Rain = 0
KPD3 150346Z 13004KT 26/15 A3014 RMK A01 T02550150  RH  052%=      5-min Rain = 0
KPD3 150347Z 13004KT 26/15 A3014 RMK A01 T02550151  RH  053%=      5-min Rain = 0
KPD3 150348Z 13004KT 25/15 A3014 RMK A01 T02540151  RH  053%=      5-min Rain = 0
KPD3 150349Z 13004KT 25/15 A3014 RMK A01 T02540151  RH  053%=      5-min Rain = 0
KPD3 150350Z 13004KT 25/15 A3014 RMK A01 T02540152  RH  053%=      5-min Rain = 0
KPD3 150351Z 13004KT 25/15 A3014 RMK A01 T02530152  RH  053%=      5-min Rain = 0
KPD3 150352Z 12004KT 25/15 A3014 RMK A01 T02530153  RH  054%=      5-min Rain = 0
KPD3 150353Z 12004KT 25/15 A3014 RMK A01 T02530153  RH  054%=      5-min Rain = 0
KPD3 150354Z 12004KT 25/15 A3014 RMK A01 T02530153  RH  054%=      5-min Rain = 0
KPD3 150355Z 12004KT 25/15 A3014 RMK A01 T02530154  RH  054%=      5-min Rain = 0
KPD3 150356Z 12004KT 25/15 A3014 RMK A01 T02540154  RH  054%=      5-min Rain = 0
KPD3 150357Z 12004KT 26/15 A3014 RMK A01 T02550154  RH  054%=      5-min Rain = 0
KPD3 150358Z 12004KT 25/15 A3014 RMK A01 T02540154  RH  054%=      5-min Rain = 0
KPD3 150359Z 12004KT 25/15 A3014 RMK A01 T02540154  RH  054%=      5-min Rain = 0
KPD3 150400Z 12004KT 26/16 A3014 RMK A01 T02550155  RH  054%=      5-min Rain = 0
KPD3 150401Z 13004KT 25/16 A3014 RMK A01 T02540155  RH  054%=      5-min Rain = 0
KPD3 150402Z 12004KT 25/16 A3014 RMK A01 T02540155  RH  054%=      5-min Rain = 0
KPD3 150403Z 12004KT 25/16 A3014 RMK A01 T02530155  RH  054%=      5-min Rain = 0
KPD3 150404Z 12004KT 25/16 A3014 RMK A01 T02530155  RH  054%=      5-min Rain = 0
KPD3 150405Z 12004KT 25/16 A3014 RMK A01 T02530155  RH  055%=      5-min Rain = 0
KPD3 150406Z 12004KT 25/16 A3014 RMK A01 T02530155  RH  055%=      5-min Rain = 0
KPD3 150407Z 12004KT 25/16 A3014 RMK A01 T02530156  RH  055%=      5-min Rain = 0
KPD3 150408Z 12004KT 25/16 A3014 RMK A01 T02530156  RH  055%=      5-min Rain = 0
KPD3 150409Z 12004KT 25/16 A3014 RMK A01 T02530156  RH  055%=      5-min Rain = 0
KPD3 150410Z 12004KT 25/16 A3014 RMK A01 T02530156  RH  055%=      5-min Rain = 0
KPD3 150411Z 11004KT 25/16 A3014 RMK A01 T02530156  RH  055%=      5-min Rain = 0
KPD3 150412Z 11004KT 25/16 A3014 RMK A01 T02530157  RH  055%=      5-min Rain = 0
KPD3 150413Z 11004KT 25/16 A3014 RMK A01 T02530157  RH  055%=      5-min Rain = 0
KPD3 150414Z 11004KT 25/16 A3014 RMK A01 T02530157  RH  055%=      5-min Rain = 0
KPD3 150415Z 11004KT 25/16 A3014 RMK A01 T02530157  RH  055%=      5-min Rain = 0
KPD3 150416Z 11004KT 25/16 A3014 RMK A01 T02530157  RH  055%=      5-min Rain = 0
KPD3 150417Z 12004KT 25/16 A3014 RMK A01 T02530157  RH  055%=      5-min Rain = 0
KPD3 150418Z 12004KT 25/16 A3015 RMK A01 T02540158  RH  055%=      5-min Rain = 0
KPD3 150419Z 12003KT 25/16 A3015 RMK A01 T02540157  RH  055%=      5-min Rain = 0
KPD3 150420Z 13003KT 25/16 A3015 RMK A01 T02540157  RH  055%=      5-min Rain = 0
KPD3 150421Z 13003KT 25/16 A3015 RMK A01 T02540158  RH  055%=      5-min Rain = 0
KPD3 150422Z 13002KT 25/16 A3015 RMK A01 T02530158  RH  055%=      5-min Rain = 0
KPD3 150423Z 14002KT 25/16 A3015 RMK A01 T02530158  RH  055%=      5-min Rain = 0
KPD3 150424Z 14002KT 25/16 A3015 RMK A01 T02530158  RH  056%=      5-min Rain = 0
KPD3 150425Z 14002KT 25/16 A3015 RMK A01 T02530157  RH  055%=      5-min Rain = 0
KPD3 150426Z 15001KT 25/16 A3015 RMK A01 T02520156  RH  055%=      5-min Rain = 0
KPD3 150427Z 16001KT 25/16 A3015 RMK A01 T02520155  RH  055%=      5-min Rain = 0
KPD3 150428Z 17001KT 25/15 A3015 RMK A01 T02500154  RH  055%=      5-min Rain = 0
KPD3 150429Z 19001KT 25/15 A3015 RMK A01 T02490153  RH  055%=      5-min Rain = 0
KPD3 150430Z 22001KT 25/15 A3015 RMK A01 T02470153  RH  056%=      5-min Rain = 0
KPD3 150431Z 23002KT 25/15 A3015 RMK A01 T02450152  RH  056%=      5-min Rain = 0
KPD3 150432Z 25002KT 24/15 A3015 RMK A01 T02440152  RH  056%=      5-min Rain = 0
KPD3 150433Z 24002KT 24/15 A3015 RMK A01 T02420151  RH  057%=      5-min Rain = 0
KPD3 150434Z 24002KT 24/15 A3015 RMK A01 T02410151  RH  057%=      5-min Rain = 0
KPD3 150435Z 24002KT 24/15 A3015 RMK A01 T02400151  RH  057%=      5-min Rain = 0
KPD3 150436Z 24002KT 24/15 A3015 RMK A01 T02390151  RH  058%=      5-min Rain = 0
KPD3 150437Z 23002KT 24/15 A3015 RMK A01 T02390151  RH  058%=      5-min Rain = 0
KPD3 150438Z 22002KT 24/15 A3015 RMK A01 T02380151  RH  058%=      5-min Rain = 0
KPD3 150439Z 21002KT 24/15 A3015 RMK A01 T02380151  RH  058%=      5-min Rain = 0
KPD3 150440Z 21001KT 24/15 A3015 RMK A01 T02380151  RH  058%=      5-min Rain = 0
KPD3 150441Z 21001KT 24/15 A3015 RMK A01 T02380152  RH  059%=      5-min Rain = 0
KPD3 150442Z 22001KT 24/15 A3015 RMK A01 T02390152  RH  058%=      5-min Rain = 0
KPD3 150443Z 21001KT 24/15 A3015 RMK A01 T02390152  RH  058%=      5-min Rain = 0
KPD3 150444Z 21001KT 24/15 A3015 RMK A01 T02400152  RH  058%=      5-min Rain = 0
KPD3 150445Z 21001KT 24/15 A3015 RMK A01 T02400152  RH  058%=      5-min Rain = 0
KPD3 150446Z 22001KT 24/15 A3015 RMK A01 T02400153  RH  058%=      5-min Rain = 0
KPD3 150447Z 21001KT 24/15 A3015 RMK A01 T02400153  RH  058%=      5-min Rain = 0
KPD3 150448Z 21001KT 24/15 A3015 RMK A01 T02410153  RH  058%=      5-min Rain = 0
KPD3 150449Z 21001KT 24/15 A3015 RMK A01 T02410153  RH  058%=      5-min Rain = 0
KPD3 150450Z 21001KT 24/15 A3015 RMK A01 T02410153  RH  058%=      5-min Rain = 0
KPD3 150451Z 20001KT 24/15 A3015 RMK A01 T02410153  RH  058%=      5-min Rain = 0
KPD3 150452Z 20001KT 24/15 A3015 RMK A01 T02410154  RH  058%=      5-min Rain = 0
KPD3 150453Z 17000KT 24/15 A3015 RMK A01 T02400153  RH  058%=      5-min Rain = 0
KPD3 150454Z 22000KT 24/15 A3015 RMK A01 T02400153  RH  058%=      5-min Rain = 0
KPD3 150455Z 20000KT 24/15 A3015 RMK A01 T02400153  RH  058%=      5-min Rain = 0
KPD3 150456Z 16000KT 24/15 A3015 RMK A01 T02390153  RH  058%=      5-min Rain = 0
KPD3 150457Z 15000KT 24/15 A3015 RMK A01 T02390153  RH  059%=      5-min Rain = 0
KPD3 150458Z 00000KT 24/15 A3015 RMK A01 T02380153  RH  059%=      5-min Rain = 0
KPD3 150459Z 11000KT 24/15 A3015 RMK A01 T02370153  RH  059%=      5-min Rain = 0

Page generated in 0.1209 seconds.